<?xml version="1.0" encoding="UTF-8" standalone="no" ?>
<gpx xmlns="http://www.topografix.com/GPX/1/1" xmlns:xsi="http://www.w3.org/2001/XMLSchema-instance" xsi:schemaLocation="http://www.topografix.com/GPX/1/1 http://www.topografix.com/GPX/1/1/gpx.xsd" version="1.1" creator="VisuGPX - https://www.visugpx.com">
  <metadata>
    <name>TOTAL 4x4 </name>
  </metadata>
  <wpt lat="42.36368" lon="2.84007">
    <ele>181</ele>
  </wpt>
  <wpt lat="42.36397" lon="2.83975">
    <ele>185.2</ele>
  </wpt>
  <wpt lat="42.36387" lon="2.83877">
    <ele>193</ele>
  </wpt>
  <wpt lat="42.36443" lon="2.83943">
    <ele>186.6</ele>
  </wpt>
  <wpt lat="42.2714" lon="2.52859">
    <ele>415.7</ele>
  </wpt>
  <wpt lat="42.27123" lon="2.52776">
    <ele>417.3</ele>
  </wpt>
  <wpt lat="42.27143" lon="2.53029">
    <ele>408.8</ele>
  </wpt>
  <trk>
    <name><![CDATA[TOTAL 4x4 _24]]></name>
    <extensions>
      <line xmlns="http://www.topografix.com/GPX/gpx_style/0/2">
        <color>880088</color>
        <width>4</width>
      </line>
    </extensions>
    <trkseg>
      <trkpt lat="42.73138" lon="-1.33911">
        <ele>471.99</ele>
        <time>2021-08-05T09:31:32Z</time>
      </trkpt>
      <trkpt lat="42.73152" lon="-1.33916">
        <ele>472.29</ele>
        <time>2021-08-05T09:31:33Z</time>
      </trkpt>
      <trkpt lat="42.73217" lon="-1.33941">
        <ele>473.75</ele>
        <time>2021-08-05T09:31:37Z</time>
      </trkpt>
      <trkpt lat="42.73301" lon="-1.34019">
        <ele>474.67</ele>
        <time>2021-08-05T09:31:42Z</time>
      </trkpt>
      <trkpt lat="42.73316" lon="-1.3404">
        <ele>474.73</ele>
        <time>2021-08-05T09:31:43Z</time>
      </trkpt>
      <trkpt lat="42.73372" lon="-1.34133">
        <ele>474.08</ele>
        <time>2021-08-05T09:31:47Z</time>
      </trkpt>
      <trkpt lat="42.73403" lon="-1.34282">
        <ele>472.14</ele>
        <time>2021-08-05T09:31:52Z</time>
      </trkpt>
      <trkpt lat="42.73413" lon="-1.34671">
        <ele>471.19</ele>
        <time>2021-08-05T09:32:04Z</time>
      </trkpt>
      <trkpt lat="42.73437" lon="-1.34858">
        <ele>471.67</ele>
        <time>2021-08-05T09:32:10Z</time>
      </trkpt>
      <trkpt lat="42.73527" lon="-1.35051">
        <ele>471.89</ele>
        <time>2021-08-05T09:32:17Z</time>
      </trkpt>
      <trkpt lat="42.73726" lon="-1.35435">
        <ele>474.97</ele>
        <time>2021-08-05T09:32:31Z</time>
      </trkpt>
      <trkpt lat="42.73741" lon="-1.3546">
        <ele>475.33</ele>
        <time>2021-08-05T09:32:32Z</time>
      </trkpt>
      <trkpt lat="42.73827" lon="-1.35546">
        <ele>476.94</ele>
        <time>2021-08-05T09:32:37Z</time>
      </trkpt>
      <trkpt lat="42.73915" lon="-1.35598">
        <ele>477.27</ele>
        <time>2021-08-05T09:32:42Z</time>
      </trkpt>
      <trkpt lat="42.74028" lon="-1.35598">
        <ele>475.74</ele>
        <time>2021-08-05T09:32:48Z</time>
      </trkpt>
      <trkpt lat="42.74217" lon="-1.35516">
        <ele>473.11</ele>
        <time>2021-08-05T09:32:57Z</time>
      </trkpt>
      <trkpt lat="42.74396" lon="-1.35483">
        <ele>472.41</ele>
        <time>2021-08-05T09:33:05Z</time>
      </trkpt>
      <trkpt lat="42.74439" lon="-1.35477">
        <ele>472.33</ele>
        <time>2021-08-05T09:33:07Z</time>
      </trkpt>
      <trkpt lat="42.74522" lon="-1.35492">
        <ele>472.09</ele>
        <time>2021-08-05T09:33:11Z</time>
      </trkpt>
      <trkpt lat="42.74752" lon="-1.35619">
        <ele>472.52</ele>
        <time>2021-08-05T09:33:22Z</time>
      </trkpt>
      <trkpt lat="42.74808" lon="-1.35653">
        <ele>472.63</ele>
        <time>2021-08-05T09:33:25Z</time>
      </trkpt>
      <trkpt lat="42.74868" lon="-1.3576">
        <ele>472.79</ele>
        <time>2021-08-05T09:33:30Z</time>
      </trkpt>
      <trkpt lat="42.7491" lon="-1.35953">
        <ele>474.52</ele>
        <time>2021-08-05T09:33:37Z</time>
      </trkpt>
      <trkpt lat="42.74984" lon="-1.36145">
        <ele>477.05</ele>
        <time>2021-08-05T09:33:46Z</time>
      </trkpt>
      <trkpt lat="42.74976" lon="-1.36224">
        <ele>476.91</ele>
        <time>2021-08-05T09:33:51Z</time>
      </trkpt>
      <trkpt lat="42.74964" lon="-1.36236">
        <ele>476.91</ele>
        <time>2021-08-05T09:33:52Z</time>
      </trkpt>
      <trkpt lat="42.74887" lon="-1.36335">
        <ele>480.05</ele>
        <time>2021-08-05T09:34:00Z</time>
      </trkpt>
      <trkpt lat="42.74878" lon="-1.36348">
        <ele>480.71</ele>
        <time>2021-08-05T09:34:01Z</time>
      </trkpt>
      <trkpt lat="42.74874" lon="-1.3643">
        <ele>484.52</ele>
        <time>2021-08-05T09:34:07Z</time>
      </trkpt>
      <trkpt lat="42.74882" lon="-1.36449">
        <ele>484.99</ele>
        <time>2021-08-05T09:34:08Z</time>
      </trkpt>
      <trkpt lat="42.7497" lon="-1.36649">
        <ele>484.99</ele>
        <time>2021-08-05T09:34:17Z</time>
      </trkpt>
      <trkpt lat="42.75127" lon="-1.37011">
        <ele>482.84</ele>
        <time>2021-08-05T09:34:32Z</time>
      </trkpt>
      <trkpt lat="42.7529" lon="-1.37386">
        <ele>480.05</ele>
        <time>2021-08-05T09:34:47Z</time>
      </trkpt>
      <trkpt lat="42.75386" lon="-1.3761">
        <ele>478.44</ele>
        <time>2021-08-05T09:34:56Z</time>
      </trkpt>
      <trkpt lat="42.75514" lon="-1.37771">
        <ele>477.84</ele>
        <time>2021-08-05T09:35:04Z</time>
      </trkpt>
      <trkpt lat="42.75562" lon="-1.37828">
        <ele>477.63</ele>
        <time>2021-08-05T09:35:07Z</time>
      </trkpt>
      <trkpt lat="42.75609" lon="-1.37947">
        <ele>477.04</ele>
        <time>2021-08-05T09:35:12Z</time>
      </trkpt>
      <trkpt lat="42.7561" lon="-1.37975">
        <ele>477</ele>
        <time>2021-08-05T09:35:13Z</time>
      </trkpt>
      <trkpt lat="42.75608" lon="-1.38385">
        <ele>477.08</ele>
        <time>2021-08-05T09:35:27Z</time>
      </trkpt>
      <trkpt lat="42.75589" lon="-1.38513">
        <ele>477.48</ele>
        <time>2021-08-05T09:35:32Z</time>
      </trkpt>
      <trkpt lat="42.75595" lon="-1.38691">
        <ele>481.3</ele>
        <time>2021-08-05T09:35:40Z</time>
      </trkpt>
      <trkpt lat="42.75641" lon="-1.3876">
        <ele>485.14</ele>
        <time>2021-08-05T09:35:46Z</time>
      </trkpt>
      <trkpt lat="42.75656" lon="-1.38762">
        <ele>486.05</ele>
        <time>2021-08-05T09:35:48Z</time>
      </trkpt>
      <trkpt lat="42.75694" lon="-1.38765">
        <ele>487.22</ele>
        <time>2021-08-05T09:35:54Z</time>
      </trkpt>
      <trkpt lat="42.75713" lon="-1.3876">
        <ele>487.17</ele>
        <time>2021-08-05T09:36:01Z</time>
      </trkpt>
      <trkpt lat="42.7571" lon="-1.38762">
        <ele>486.63</ele>
        <time>2021-08-05T09:36:16Z</time>
      </trkpt>
      <trkpt lat="42.7571" lon="-1.38762">
        <ele>486.6</ele>
        <time>2021-08-05T09:36:20Z</time>
      </trkpt>
      <trkpt lat="42.7571" lon="-1.38758">
        <ele>486.84</ele>
        <time>2021-08-05T09:36:36Z</time>
      </trkpt>
      <trkpt lat="42.75695" lon="-1.38761">
        <ele>487.09</ele>
        <time>2021-08-05T09:36:40Z</time>
      </trkpt>
      <trkpt lat="42.75659" lon="-1.38755">
        <ele>487.37</ele>
        <time>2021-08-05T09:36:44Z</time>
      </trkpt>
      <trkpt lat="42.75646" lon="-1.38728">
        <ele>487.94</ele>
        <time>2021-08-05T09:36:50Z</time>
      </trkpt>
      <trkpt lat="42.7565" lon="-1.38723">
        <ele>488.02</ele>
        <time>2021-08-05T09:36:51Z</time>
      </trkpt>
      <trkpt lat="42.75667" lon="-1.38676">
        <ele>488.96</ele>
        <time>2021-08-05T09:36:59Z</time>
      </trkpt>
      <trkpt lat="42.75696" lon="-1.38628">
        <ele>489.57</ele>
        <time>2021-08-05T09:37:07Z</time>
      </trkpt>
      <trkpt lat="42.75699" lon="-1.38585">
        <ele>489.93</ele>
        <time>2021-08-05T09:37:11Z</time>
      </trkpt>
      <trkpt lat="42.75693" lon="-1.38476">
        <ele>492</ele>
        <time>2021-08-05T09:37:19Z</time>
      </trkpt>
      <trkpt lat="42.75704" lon="-1.38455">
        <ele>493.09</ele>
        <time>2021-08-05T09:37:23Z</time>
      </trkpt>
      <trkpt lat="42.75779" lon="-1.38398">
        <ele>496</ele>
        <time>2021-08-05T09:37:34Z</time>
      </trkpt>
      <trkpt lat="42.75874" lon="-1.38324">
        <ele>498.27</ele>
        <time>2021-08-05T09:37:43Z</time>
      </trkpt>
      <trkpt lat="42.75928" lon="-1.38284">
        <ele>499</ele>
        <time>2021-08-05T09:37:48Z</time>
      </trkpt>
      <trkpt lat="42.75952" lon="-1.38226">
        <ele>499.03</ele>
        <time>2021-08-05T09:37:54Z</time>
      </trkpt>
      <trkpt lat="42.75972" lon="-1.38063">
        <ele>501.23</ele>
        <time>2021-08-05T09:38:04Z</time>
      </trkpt>
      <trkpt lat="42.75988" lon="-1.37939">
        <ele>504.6</ele>
        <time>2021-08-05T09:38:10Z</time>
      </trkpt>
      <trkpt lat="42.75999" lon="-1.37851">
        <ele>507.75</ele>
        <time>2021-08-05T09:38:14Z</time>
      </trkpt>
      <trkpt lat="42.76017" lon="-1.37715">
        <ele>511.04</ele>
        <time>2021-08-05T09:38:20Z</time>
      </trkpt>
      <trkpt lat="42.76036" lon="-1.37578">
        <ele>512.31</ele>
        <time>2021-08-05T09:38:27Z</time>
      </trkpt>
      <trkpt lat="42.76077" lon="-1.37522">
        <ele>512.46</ele>
        <time>2021-08-05T09:38:32Z</time>
      </trkpt>
      <trkpt lat="42.76254" lon="-1.37409">
        <ele>513.74</ele>
        <time>2021-08-05T09:38:45Z</time>
      </trkpt>
      <trkpt lat="42.76466" lon="-1.37267">
        <ele>516.68</ele>
        <time>2021-08-05T09:39:01Z</time>
      </trkpt>
      <trkpt lat="42.76586" lon="-1.37188">
        <ele>519.99</ele>
        <time>2021-08-05T09:39:10Z</time>
      </trkpt>
      <trkpt lat="42.76653" lon="-1.37137">
        <ele>523.14</ele>
        <time>2021-08-05T09:39:15Z</time>
      </trkpt>
      <trkpt lat="42.76757" lon="-1.37059">
        <ele>526.2</ele>
        <time>2021-08-05T09:39:23Z</time>
      </trkpt>
      <trkpt lat="42.76917" lon="-1.3694">
        <ele>527.22</ele>
        <time>2021-08-05T09:39:36Z</time>
      </trkpt>
      <trkpt lat="42.77071" lon="-1.36823">
        <ele>530.3</ele>
        <time>2021-08-05T09:39:47Z</time>
      </trkpt>
      <trkpt lat="42.77108" lon="-1.36795">
        <ele>531.81</ele>
        <time>2021-08-05T09:39:50Z</time>
      </trkpt>
      <trkpt lat="42.77183" lon="-1.3678">
        <ele>534.07</ele>
        <time>2021-08-05T09:39:56Z</time>
      </trkpt>
      <trkpt lat="42.7724" lon="-1.36783">
        <ele>534.99</ele>
        <time>2021-08-05T09:40:01Z</time>
      </trkpt>
      <trkpt lat="42.77332" lon="-1.36777">
        <ele>536.77</ele>
        <time>2021-08-05T09:40:08Z</time>
      </trkpt>
      <trkpt lat="42.77393" lon="-1.36766">
        <ele>538.63</ele>
        <time>2021-08-05T09:40:15Z</time>
      </trkpt>
      <trkpt lat="42.7744" lon="-1.36761">
        <ele>540.22</ele>
        <time>2021-08-05T09:40:25Z</time>
      </trkpt>
      <trkpt lat="42.77441" lon="-1.36764">
        <ele>541.32</ele>
        <time>2021-08-05T09:40:35Z</time>
      </trkpt>
      <trkpt lat="42.77441" lon="-1.36764">
        <ele>541.62</ele>
        <time>2021-08-05T09:40:42Z</time>
      </trkpt>
      <trkpt lat="42.77484" lon="-1.36751">
        <ele>542.18</ele>
        <time>2021-08-05T09:40:50Z</time>
      </trkpt>
      <trkpt lat="42.77503" lon="-1.36744">
        <ele>542.53</ele>
        <time>2021-08-05T09:40:52Z</time>
      </trkpt>
      <trkpt lat="42.7752" lon="-1.36734">
        <ele>542.98</ele>
        <time>2021-08-05T09:40:54Z</time>
      </trkpt>
      <trkpt lat="42.77548" lon="-1.36743">
        <ele>544.37</ele>
        <time>2021-08-05T09:40:58Z</time>
      </trkpt>
      <trkpt lat="42.77554" lon="-1.36751">
        <ele>544.78</ele>
        <time>2021-08-05T09:40:59Z</time>
      </trkpt>
      <trkpt lat="42.7756" lon="-1.36758">
        <ele>545.18</ele>
        <time>2021-08-05T09:41:00Z</time>
      </trkpt>
      <trkpt lat="42.77567" lon="-1.36763">
        <ele>545.5</ele>
        <time>2021-08-05T09:41:01Z</time>
      </trkpt>
      <trkpt lat="42.77575" lon="-1.36765">
        <ele>545.71</ele>
        <time>2021-08-05T09:41:02Z</time>
      </trkpt>
      <trkpt lat="42.77584" lon="-1.36765">
        <ele>545.81</ele>
        <time>2021-08-05T09:41:03Z</time>
      </trkpt>
      <trkpt lat="42.77594" lon="-1.36764">
        <ele>545.87</ele>
        <time>2021-08-05T09:41:04Z</time>
      </trkpt>
      <trkpt lat="42.77645" lon="-1.36789">
        <ele>543.55</ele>
        <time>2021-08-05T09:41:09Z</time>
      </trkpt>
      <trkpt lat="42.77691" lon="-1.3683">
        <ele>539.14</ele>
        <time>2021-08-05T09:41:13Z</time>
      </trkpt>
      <trkpt lat="42.77729" lon="-1.36848">
        <ele>534.54</ele>
        <time>2021-08-05T09:41:16Z</time>
      </trkpt>
      <trkpt lat="42.77761" lon="-1.36878">
        <ele>528.92</ele>
        <time>2021-08-05T09:41:19Z</time>
      </trkpt>
      <trkpt lat="42.7777" lon="-1.3689">
        <ele>526.99</ele>
        <time>2021-08-05T09:41:20Z</time>
      </trkpt>
      <trkpt lat="42.7779" lon="-1.3693">
        <ele>521.23</ele>
        <time>2021-08-05T09:41:23Z</time>
      </trkpt>
      <trkpt lat="42.77805" lon="-1.36944">
        <ele>517.48</ele>
        <time>2021-08-05T09:41:25Z</time>
      </trkpt>
      <trkpt lat="42.77845" lon="-1.36978">
        <ele>509.49</ele>
        <time>2021-08-05T09:41:30Z</time>
      </trkpt>
      <trkpt lat="42.77853" lon="-1.36987">
        <ele>508.06</ele>
        <time>2021-08-05T09:41:31Z</time>
      </trkpt>
      <trkpt lat="42.77888" lon="-1.3704">
        <ele>503.03</ele>
        <time>2021-08-05T09:41:36Z</time>
      </trkpt>
      <trkpt lat="42.77938" lon="-1.37052">
        <ele>499.57</ele>
        <time>2021-08-05T09:41:43Z</time>
      </trkpt>
      <trkpt lat="42.77946" lon="-1.37046">
        <ele>499.18</ele>
        <time>2021-08-05T09:41:44Z</time>
      </trkpt>
      <trkpt lat="42.77977" lon="-1.37014">
        <ele>498.56</ele>
        <time>2021-08-05T09:41:48Z</time>
      </trkpt>
      <trkpt lat="42.78003" lon="-1.36997">
        <ele>498.72</ele>
        <time>2021-08-05T09:41:52Z</time>
      </trkpt>
      <trkpt lat="42.78033" lon="-1.36972">
        <ele>498.83</ele>
        <time>2021-08-05T09:41:57Z</time>
      </trkpt>
      <trkpt lat="42.78043" lon="-1.36959">
        <ele>498.8</ele>
        <time>2021-08-05T09:41:59Z</time>
      </trkpt>
      <trkpt lat="42.78065" lon="-1.36942">
        <ele>498.52</ele>
        <time>2021-08-05T09:42:02Z</time>
      </trkpt>
      <trkpt lat="42.78143" lon="-1.36851">
        <ele>497.74</ele>
        <time>2021-08-05T09:42:12Z</time>
      </trkpt>
      <trkpt lat="42.7816" lon="-1.36823">
        <ele>497.82</ele>
        <time>2021-08-05T09:42:15Z</time>
      </trkpt>
      <trkpt lat="42.7817" lon="-1.36777">
        <ele>497.85</ele>
        <time>2021-08-05T09:42:22Z</time>
      </trkpt>
      <trkpt lat="42.78199" lon="-1.36789">
        <ele>497.98</ele>
        <time>2021-08-05T09:42:26Z</time>
      </trkpt>
      <trkpt lat="42.78216" lon="-1.36777">
        <ele>497.99</ele>
        <time>2021-08-05T09:42:28Z</time>
      </trkpt>
      <trkpt lat="42.78236" lon="-1.36753">
        <ele>498.21</ele>
        <time>2021-08-05T09:42:31Z</time>
      </trkpt>
      <trkpt lat="42.7829" lon="-1.36713">
        <ele>498.92</ele>
        <time>2021-08-05T09:42:39Z</time>
      </trkpt>
      <trkpt lat="42.78317" lon="-1.36679">
        <ele>497.94</ele>
        <time>2021-08-05T09:42:48Z</time>
      </trkpt>
      <trkpt lat="42.78321" lon="-1.36675">
        <ele>498</ele>
        <time>2021-08-05T09:42:49Z</time>
      </trkpt>
      <trkpt lat="42.78326" lon="-1.36671">
        <ele>498.09</ele>
        <time>2021-08-05T09:42:50Z</time>
      </trkpt>
      <trkpt lat="42.78332" lon="-1.36668">
        <ele>498.17</ele>
        <time>2021-08-05T09:42:51Z</time>
      </trkpt>
      <trkpt lat="42.78338" lon="-1.36668">
        <ele>498.23</ele>
        <time>2021-08-05T09:42:52Z</time>
      </trkpt>
      <trkpt lat="42.78345" lon="-1.36668">
        <ele>498.28</ele>
        <time>2021-08-05T09:42:53Z</time>
      </trkpt>
      <trkpt lat="42.78377" lon="-1.36661">
        <ele>498.62</ele>
        <time>2021-08-05T09:42:57Z</time>
      </trkpt>
      <trkpt lat="42.78385" lon="-1.36657">
        <ele>498.66</ele>
        <time>2021-08-05T09:42:58Z</time>
      </trkpt>
      <trkpt lat="42.78392" lon="-1.36652">
        <ele>498.66</ele>
        <time>2021-08-05T09:42:59Z</time>
      </trkpt>
      <trkpt lat="42.784" lon="-1.36647">
        <ele>498.66</ele>
        <time>2021-08-05T09:43:00Z</time>
      </trkpt>
      <trkpt lat="42.78433" lon="-1.36628">
        <ele>498.24</ele>
        <time>2021-08-05T09:43:07Z</time>
      </trkpt>
      <trkpt lat="42.78446" lon="-1.36609">
        <ele>498.16</ele>
        <time>2021-08-05T09:43:11Z</time>
      </trkpt>
      <trkpt lat="42.78472" lon="-1.36597">
        <ele>498.59</ele>
        <time>2021-08-05T09:43:15Z</time>
      </trkpt>
      <trkpt lat="42.78502" lon="-1.36587">
        <ele>499.29</ele>
        <time>2021-08-05T09:43:19Z</time>
      </trkpt>
      <trkpt lat="42.7853" lon="-1.36589">
        <ele>498.98</ele>
        <time>2021-08-05T09:43:22Z</time>
      </trkpt>
      <trkpt lat="42.78549" lon="-1.36586">
        <ele>497.85</ele>
        <time>2021-08-05T09:43:24Z</time>
      </trkpt>
      <trkpt lat="42.78558" lon="-1.36582">
        <ele>497.12</ele>
        <time>2021-08-05T09:43:25Z</time>
      </trkpt>
      <trkpt lat="42.78568" lon="-1.36577">
        <ele>496.34</ele>
        <time>2021-08-05T09:43:26Z</time>
      </trkpt>
      <trkpt lat="42.78578" lon="-1.36571">
        <ele>495.59</ele>
        <time>2021-08-05T09:43:27Z</time>
      </trkpt>
      <trkpt lat="42.78661" lon="-1.36531">
        <ele>492.65</ele>
        <time>2021-08-05T09:43:36Z</time>
      </trkpt>
      <trkpt lat="42.78714" lon="-1.3651">
        <ele>491.02</ele>
        <time>2021-08-05T09:43:44Z</time>
      </trkpt>
      <trkpt lat="42.78725" lon="-1.36501">
        <ele>489.5</ele>
        <time>2021-08-05T09:43:55Z</time>
      </trkpt>
      <trkpt lat="42.78749" lon="-1.36478">
        <ele>488.7</ele>
        <time>2021-08-05T09:44:08Z</time>
      </trkpt>
      <trkpt lat="42.78796" lon="-1.36444">
        <ele>488.32</ele>
        <time>2021-08-05T09:44:19Z</time>
      </trkpt>
      <trkpt lat="42.78819" lon="-1.36383">
        <ele>490.62</ele>
        <time>2021-08-05T09:44:26Z</time>
      </trkpt>
      <trkpt lat="42.78832" lon="-1.36375">
        <ele>493.06</ele>
        <time>2021-08-05T09:44:30Z</time>
      </trkpt>
      <trkpt lat="42.78844" lon="-1.36374">
        <ele>494.68</ele>
        <time>2021-08-05T09:44:34Z</time>
      </trkpt>
      <trkpt lat="42.78856" lon="-1.36326">
        <ele>497.98</ele>
        <time>2021-08-05T09:44:41Z</time>
      </trkpt>
      <trkpt lat="42.78851" lon="-1.36294">
        <ele>500.65</ele>
        <time>2021-08-05T09:44:44Z</time>
      </trkpt>
      <trkpt lat="42.78851" lon="-1.36282">
        <ele>501.82</ele>
        <time>2021-08-05T09:44:45Z</time>
      </trkpt>
      <trkpt lat="42.78852" lon="-1.36271">
        <ele>503.08</ele>
        <time>2021-08-05T09:44:46Z</time>
      </trkpt>
      <trkpt lat="42.78853" lon="-1.36259">
        <ele>504.29</ele>
        <time>2021-08-05T09:44:47Z</time>
      </trkpt>
      <trkpt lat="42.78854" lon="-1.36223">
        <ele>508.02</ele>
        <time>2021-08-05T09:44:50Z</time>
      </trkpt>
      <trkpt lat="42.78862" lon="-1.36181">
        <ele>513.1</ele>
        <time>2021-08-05T09:44:54Z</time>
      </trkpt>
      <trkpt lat="42.78863" lon="-1.36171">
        <ele>514.55</ele>
        <time>2021-08-05T09:44:55Z</time>
      </trkpt>
      <trkpt lat="42.78863" lon="-1.36142">
        <ele>519.21</ele>
        <time>2021-08-05T09:44:58Z</time>
      </trkpt>
      <trkpt lat="42.7887" lon="-1.36129">
        <ele>522.4</ele>
        <time>2021-08-05T09:45:00Z</time>
      </trkpt>
      <trkpt lat="42.78877" lon="-1.36125">
        <ele>524.01</ele>
        <time>2021-08-05T09:45:01Z</time>
      </trkpt>
      <trkpt lat="42.78911" lon="-1.36105">
        <ele>529.42</ele>
        <time>2021-08-05T09:45:05Z</time>
      </trkpt>
      <trkpt lat="42.78937" lon="-1.36081">
        <ele>533.1</ele>
        <time>2021-08-05T09:45:08Z</time>
      </trkpt>
      <trkpt lat="42.78962" lon="-1.3605">
        <ele>536.6</ele>
        <time>2021-08-05T09:45:11Z</time>
      </trkpt>
      <trkpt lat="42.78984" lon="-1.3602">
        <ele>540.8</ele>
        <time>2021-08-05T09:45:14Z</time>
      </trkpt>
      <trkpt lat="42.78997" lon="-1.36">
        <ele>543.93</ele>
        <time>2021-08-05T09:45:16Z</time>
      </trkpt>
      <trkpt lat="42.79009" lon="-1.35982">
        <ele>547.14</ele>
        <time>2021-08-05T09:45:18Z</time>
      </trkpt>
      <trkpt lat="42.79021" lon="-1.35964">
        <ele>550.46</ele>
        <time>2021-08-05T09:45:20Z</time>
      </trkpt>
      <trkpt lat="42.79031" lon="-1.35948">
        <ele>555.55</ele>
        <time>2021-08-05T09:45:22Z</time>
      </trkpt>
      <trkpt lat="42.79036" lon="-1.35941">
        <ele>555.55</ele>
        <time>2021-08-05T09:45:23Z</time>
      </trkpt>
      <trkpt lat="42.79044" lon="-1.35926">
        <ele>558.86</ele>
        <time>2021-08-05T09:45:25Z</time>
      </trkpt>
      <trkpt lat="42.79046" lon="-1.3592">
        <ele>562.01</ele>
        <time>2021-08-05T09:45:26Z</time>
      </trkpt>
      <trkpt lat="42.79044" lon="-1.35905">
        <ele>566.29</ele>
        <time>2021-08-05T09:45:29Z</time>
      </trkpt>
      <trkpt lat="42.79027" lon="-1.35906">
        <ele>569.76</ele>
        <time>2021-08-05T09:45:32Z</time>
      </trkpt>
      <trkpt lat="42.79004" lon="-1.3592">
        <ele>572.82</ele>
        <time>2021-08-05T09:45:35Z</time>
      </trkpt>
      <trkpt lat="42.78981" lon="-1.35923">
        <ele>575.93</ele>
        <time>2021-08-05T09:45:38Z</time>
      </trkpt>
      <trkpt lat="42.78974" lon="-1.35921">
        <ele>577.04</ele>
        <time>2021-08-05T09:45:39Z</time>
      </trkpt>
      <trkpt lat="42.78928" lon="-1.35911">
        <ele>582.56</ele>
        <time>2021-08-05T09:45:45Z</time>
      </trkpt>
      <trkpt lat="42.78884" lon="-1.35894">
        <ele>585.65</ele>
        <time>2021-08-05T09:45:50Z</time>
      </trkpt>
      <trkpt lat="42.78864" lon="-1.3588">
        <ele>586.76</ele>
        <time>2021-08-05T09:45:52Z</time>
      </trkpt>
      <trkpt lat="42.78846" lon="-1.35863">
        <ele>588</ele>
        <time>2021-08-05T09:45:54Z</time>
      </trkpt>
      <trkpt lat="42.7883" lon="-1.3584">
        <ele>589.84</ele>
        <time>2021-08-05T09:45:57Z</time>
      </trkpt>
      <trkpt lat="42.78846" lon="-1.35817">
        <ele>592.21</ele>
        <time>2021-08-05T09:46:01Z</time>
      </trkpt>
      <trkpt lat="42.78875" lon="-1.35775">
        <ele>596.09</ele>
        <time>2021-08-05T09:46:06Z</time>
      </trkpt>
      <trkpt lat="42.78887" lon="-1.35722">
        <ele>601.09</ele>
        <time>2021-08-05T09:46:11Z</time>
      </trkpt>
      <trkpt lat="42.78875" lon="-1.35693">
        <ele>604.47</ele>
        <time>2021-08-05T09:46:14Z</time>
      </trkpt>
      <trkpt lat="42.78842" lon="-1.35649">
        <ele>609.49</ele>
        <time>2021-08-05T09:46:19Z</time>
      </trkpt>
      <trkpt lat="42.78817" lon="-1.35623">
        <ele>612.69</ele>
        <time>2021-08-05T09:46:22Z</time>
      </trkpt>
      <trkpt lat="42.788" lon="-1.356">
        <ele>615.9</ele>
        <time>2021-08-05T09:46:25Z</time>
      </trkpt>
      <trkpt lat="42.78793" lon="-1.35587">
        <ele>618.09</ele>
        <time>2021-08-05T09:46:27Z</time>
      </trkpt>
      <trkpt lat="42.78802" lon="-1.35544">
        <ele>622.81</ele>
        <time>2021-08-05T09:46:32Z</time>
      </trkpt>
      <trkpt lat="42.78824" lon="-1.35505">
        <ele>626.84</ele>
        <time>2021-08-05T09:46:36Z</time>
      </trkpt>
      <trkpt lat="42.78843" lon="-1.35477">
        <ele>630.4</ele>
        <time>2021-08-05T09:46:39Z</time>
      </trkpt>
      <trkpt lat="42.7886" lon="-1.35456">
        <ele>634.38</ele>
        <time>2021-08-05T09:46:42Z</time>
      </trkpt>
      <trkpt lat="42.78862" lon="-1.35429">
        <ele>639.49</ele>
        <time>2021-08-05T09:46:46Z</time>
      </trkpt>
      <trkpt lat="42.78841" lon="-1.35415">
        <ele>643.27</ele>
        <time>2021-08-05T09:46:49Z</time>
      </trkpt>
      <trkpt lat="42.78805" lon="-1.35378">
        <ele>647.22</ele>
        <time>2021-08-05T09:46:53Z</time>
      </trkpt>
      <trkpt lat="42.78782" lon="-1.35306">
        <ele>650.9</ele>
        <time>2021-08-05T09:46:58Z</time>
      </trkpt>
      <trkpt lat="42.78774" lon="-1.35237">
        <ele>653.96</ele>
        <time>2021-08-05T09:47:04Z</time>
      </trkpt>
      <trkpt lat="42.78787" lon="-1.35172">
        <ele>657.92</ele>
        <time>2021-08-05T09:47:09Z</time>
      </trkpt>
      <trkpt lat="42.788" lon="-1.35149">
        <ele>659.52</ele>
        <time>2021-08-05T09:47:11Z</time>
      </trkpt>
      <trkpt lat="42.78813" lon="-1.35127">
        <ele>661.21</ele>
        <time>2021-08-05T09:47:13Z</time>
      </trkpt>
      <trkpt lat="42.78816" lon="-1.35059">
        <ele>665.22</ele>
        <time>2021-08-05T09:47:18Z</time>
      </trkpt>
      <trkpt lat="42.78795" lon="-1.35016">
        <ele>667.17</ele>
        <time>2021-08-05T09:47:21Z</time>
      </trkpt>
      <trkpt lat="42.78797" lon="-1.34919">
        <ele>667.55</ele>
        <time>2021-08-05T09:47:28Z</time>
      </trkpt>
      <trkpt lat="42.78834" lon="-1.34877">
        <ele>669.7</ele>
        <time>2021-08-05T09:47:38Z</time>
      </trkpt>
      <trkpt lat="42.78858" lon="-1.34851">
        <ele>673.05</ele>
        <time>2021-08-05T09:47:48Z</time>
      </trkpt>
      <trkpt lat="42.78876" lon="-1.34811">
        <ele>676.15</ele>
        <time>2021-08-05T09:47:56Z</time>
      </trkpt>
      <trkpt lat="42.7889" lon="-1.34783">
        <ele>678.16</ele>
        <time>2021-08-05T09:48:00Z</time>
      </trkpt>
      <trkpt lat="42.78924" lon="-1.34748">
        <ele>681.79</ele>
        <time>2021-08-05T09:48:05Z</time>
      </trkpt>
      <trkpt lat="42.78958" lon="-1.34717">
        <ele>685.3</ele>
        <time>2021-08-05T09:48:09Z</time>
      </trkpt>
      <trkpt lat="42.78982" lon="-1.34701">
        <ele>688.62</ele>
        <time>2021-08-05T09:48:12Z</time>
      </trkpt>
      <trkpt lat="42.78995" lon="-1.34693">
        <ele>691.11</ele>
        <time>2021-08-05T09:48:14Z</time>
      </trkpt>
      <trkpt lat="42.79026" lon="-1.3469">
        <ele>696.17</ele>
        <time>2021-08-05T09:48:18Z</time>
      </trkpt>
      <trkpt lat="42.79059" lon="-1.34697">
        <ele>701.32</ele>
        <time>2021-08-05T09:48:22Z</time>
      </trkpt>
      <trkpt lat="42.79071" lon="-1.34701">
        <ele>703.79</ele>
        <time>2021-08-05T09:48:24Z</time>
      </trkpt>
      <trkpt lat="42.79099" lon="-1.34702">
        <ele>708.39</ele>
        <time>2021-08-05T09:48:28Z</time>
      </trkpt>
      <trkpt lat="42.79122" lon="-1.34683">
        <ele>711.19</ele>
        <time>2021-08-05T09:48:31Z</time>
      </trkpt>
      <trkpt lat="42.79138" lon="-1.34667">
        <ele>713.17</ele>
        <time>2021-08-05T09:48:33Z</time>
      </trkpt>
      <trkpt lat="42.79178" lon="-1.3465">
        <ele>715.55</ele>
        <time>2021-08-05T09:48:37Z</time>
      </trkpt>
      <trkpt lat="42.7923" lon="-1.34597">
        <ele>719.06</ele>
        <time>2021-08-05T09:48:44Z</time>
      </trkpt>
      <trkpt lat="42.79241" lon="-1.34565">
        <ele>721.21</ele>
        <time>2021-08-05T09:48:47Z</time>
      </trkpt>
      <trkpt lat="42.7927" lon="-1.34535">
        <ele>725.26</ele>
        <time>2021-08-05T09:48:52Z</time>
      </trkpt>
      <trkpt lat="42.79316" lon="-1.3451">
        <ele>730.29</ele>
        <time>2021-08-05T09:48:58Z</time>
      </trkpt>
      <trkpt lat="42.79325" lon="-1.3451">
        <ele>731.14</ele>
        <time>2021-08-05T09:48:59Z</time>
      </trkpt>
      <trkpt lat="42.7937" lon="-1.34507">
        <ele>735.36</ele>
        <time>2021-08-05T09:49:04Z</time>
      </trkpt>
      <trkpt lat="42.79378" lon="-1.34506">
        <ele>736.21</ele>
        <time>2021-08-05T09:49:05Z</time>
      </trkpt>
      <trkpt lat="42.79415" lon="-1.34513">
        <ele>740.98</ele>
        <time>2021-08-05T09:49:10Z</time>
      </trkpt>
      <trkpt lat="42.79424" lon="-1.34515">
        <ele>742.81</ele>
        <time>2021-08-05T09:49:12Z</time>
      </trkpt>
      <trkpt lat="42.79454" lon="-1.34504">
        <ele>746.8</ele>
        <time>2021-08-05T09:49:17Z</time>
      </trkpt>
      <trkpt lat="42.79513" lon="-1.34461">
        <ele>750.74</ele>
        <time>2021-08-05T09:49:24Z</time>
      </trkpt>
      <trkpt lat="42.79563" lon="-1.34431">
        <ele>754.09</ele>
        <time>2021-08-05T09:49:29Z</time>
      </trkpt>
      <trkpt lat="42.79573" lon="-1.34426">
        <ele>754.9</ele>
        <time>2021-08-05T09:49:30Z</time>
      </trkpt>
      <trkpt lat="42.79614" lon="-1.34425">
        <ele>758.1</ele>
        <time>2021-08-05T09:49:34Z</time>
      </trkpt>
      <trkpt lat="42.79663" lon="-1.3445">
        <ele>762.97</ele>
        <time>2021-08-05T09:49:40Z</time>
      </trkpt>
      <trkpt lat="42.79672" lon="-1.34454">
        <ele>763.79</ele>
        <time>2021-08-05T09:49:41Z</time>
      </trkpt>
      <trkpt lat="42.7972" lon="-1.34464">
        <ele>767.89</ele>
        <time>2021-08-05T09:49:46Z</time>
      </trkpt>
      <trkpt lat="42.79745" lon="-1.34497">
        <ele>771.36</ele>
        <time>2021-08-05T09:49:50Z</time>
      </trkpt>
      <trkpt lat="42.79769" lon="-1.34541">
        <ele>775.36</ele>
        <time>2021-08-05T09:49:55Z</time>
      </trkpt>
      <trkpt lat="42.79794" lon="-1.34572">
        <ele>778.45</ele>
        <time>2021-08-05T09:49:59Z</time>
      </trkpt>
      <trkpt lat="42.79821" lon="-1.34602">
        <ele>781.48</ele>
        <time>2021-08-05T09:50:03Z</time>
      </trkpt>
      <trkpt lat="42.79858" lon="-1.34638">
        <ele>784.85</ele>
        <time>2021-08-05T09:50:08Z</time>
      </trkpt>
      <trkpt lat="42.79865" lon="-1.34646">
        <ele>785.37</ele>
        <time>2021-08-05T09:50:09Z</time>
      </trkpt>
      <trkpt lat="42.79888" lon="-1.34633">
        <ele>788.64</ele>
        <time>2021-08-05T09:50:14Z</time>
      </trkpt>
      <trkpt lat="42.79877" lon="-1.34614">
        <ele>790.07</ele>
        <time>2021-08-05T09:50:16Z</time>
      </trkpt>
      <trkpt lat="42.79859" lon="-1.34555">
        <ele>794.73</ele>
        <time>2021-08-05T09:50:22Z</time>
      </trkpt>
      <trkpt lat="42.79857" lon="-1.34545">
        <ele>794.73</ele>
        <time>2021-08-05T09:50:23Z</time>
      </trkpt>
      <trkpt lat="42.79845" lon="-1.34514">
        <ele>797.08</ele>
        <time>2021-08-05T09:50:26Z</time>
      </trkpt>
      <trkpt lat="42.79829" lon="-1.34436">
        <ele>800.78</ele>
        <time>2021-08-05T09:50:33Z</time>
      </trkpt>
      <trkpt lat="42.79816" lon="-1.34395">
        <ele>802.38</ele>
        <time>2021-08-05T09:50:37Z</time>
      </trkpt>
      <trkpt lat="42.79798" lon="-1.34372">
        <ele>803.82</ele>
        <time>2021-08-05T09:50:40Z</time>
      </trkpt>
      <trkpt lat="42.79788" lon="-1.34357">
        <ele>805.01</ele>
        <time>2021-08-05T09:50:42Z</time>
      </trkpt>
      <trkpt lat="42.79775" lon="-1.34329">
        <ele>807.13</ele>
        <time>2021-08-05T09:50:45Z</time>
      </trkpt>
      <trkpt lat="42.79753" lon="-1.34293">
        <ele>809.56</ele>
        <time>2021-08-05T09:50:49Z</time>
      </trkpt>
      <trkpt lat="42.7972" lon="-1.34274">
        <ele>812.06</ele>
        <time>2021-08-05T09:50:53Z</time>
      </trkpt>
      <trkpt lat="42.79658" lon="-1.34271">
        <ele>815.91</ele>
        <time>2021-08-05T09:51:00Z</time>
      </trkpt>
      <trkpt lat="42.79649" lon="-1.34272">
        <ele>816.48</ele>
        <time>2021-08-05T09:51:01Z</time>
      </trkpt>
      <trkpt lat="42.79618" lon="-1.34279">
        <ele>818.64</ele>
        <time>2021-08-05T09:51:05Z</time>
      </trkpt>
      <trkpt lat="42.79561" lon="-1.34268">
        <ele>822.45</ele>
        <time>2021-08-05T09:51:12Z</time>
      </trkpt>
      <trkpt lat="42.79539" lon="-1.34223">
        <ele>825.25</ele>
        <time>2021-08-05T09:51:18Z</time>
      </trkpt>
      <trkpt lat="42.79547" lon="-1.34201">
        <ele>826.18</ele>
        <time>2021-08-05T09:51:20Z</time>
      </trkpt>
      <trkpt lat="42.79577" lon="-1.34138">
        <ele>830.05</ele>
        <time>2021-08-05T09:51:27Z</time>
      </trkpt>
      <trkpt lat="42.79613" lon="-1.34086">
        <ele>833.55</ele>
        <time>2021-08-05T09:51:33Z</time>
      </trkpt>
      <trkpt lat="42.79619" lon="-1.34077">
        <ele>834.19</ele>
        <time>2021-08-05T09:51:34Z</time>
      </trkpt>
      <trkpt lat="42.79634" lon="-1.34042">
        <ele>836.4</ele>
        <time>2021-08-05T09:51:38Z</time>
      </trkpt>
      <trkpt lat="42.79654" lon="-1.33977">
        <ele>839.46</ele>
        <time>2021-08-05T09:51:44Z</time>
      </trkpt>
      <trkpt lat="42.79695" lon="-1.33924">
        <ele>843.52</ele>
        <time>2021-08-05T09:51:51Z</time>
      </trkpt>
      <trkpt lat="42.79728" lon="-1.33887">
        <ele>846.61</ele>
        <time>2021-08-05T09:51:56Z</time>
      </trkpt>
      <trkpt lat="42.79765" lon="-1.33849">
        <ele>849.87</ele>
        <time>2021-08-05T09:52:02Z</time>
      </trkpt>
      <trkpt lat="42.79776" lon="-1.33837">
        <ele>850.92</ele>
        <time>2021-08-05T09:52:04Z</time>
      </trkpt>
      <trkpt lat="42.79776" lon="-1.33783">
        <ele>854.38</ele>
        <time>2021-08-05T09:52:10Z</time>
      </trkpt>
      <trkpt lat="42.79745" lon="-1.33707">
        <ele>858.16</ele>
        <time>2021-08-05T09:52:18Z</time>
      </trkpt>
      <trkpt lat="42.7972" lon="-1.33647">
        <ele>861.22</ele>
        <time>2021-08-05T09:52:25Z</time>
      </trkpt>
      <trkpt lat="42.79702" lon="-1.33617">
        <ele>863.51</ele>
        <time>2021-08-05T09:52:29Z</time>
      </trkpt>
      <trkpt lat="42.79706" lon="-1.336">
        <ele>867.24</ele>
        <time>2021-08-05T09:52:35Z</time>
      </trkpt>
      <trkpt lat="42.79708" lon="-1.33602">
        <ele>867.78</ele>
        <time>2021-08-05T09:52:36Z</time>
      </trkpt>
      <trkpt lat="42.79737" lon="-1.33637">
        <ele>871.53</ele>
        <time>2021-08-05T09:52:45Z</time>
      </trkpt>
      <trkpt lat="42.7977" lon="-1.33669">
        <ele>874.73</ele>
        <time>2021-08-05T09:52:52Z</time>
      </trkpt>
      <trkpt lat="42.7979" lon="-1.33688">
        <ele>877.78</ele>
        <time>2021-08-05T09:52:57Z</time>
      </trkpt>
      <trkpt lat="42.79808" lon="-1.33704">
        <ele>881.32</ele>
        <time>2021-08-05T09:53:03Z</time>
      </trkpt>
      <trkpt lat="42.79811" lon="-1.33707">
        <ele>882.03</ele>
        <time>2021-08-05T09:53:04Z</time>
      </trkpt>
      <trkpt lat="42.79832" lon="-1.33731">
        <ele>885.65</ele>
        <time>2021-08-05T09:53:10Z</time>
      </trkpt>
      <trkpt lat="42.79847" lon="-1.33753">
        <ele>888.33</ele>
        <time>2021-08-05T09:53:15Z</time>
      </trkpt>
      <trkpt lat="42.79861" lon="-1.3377">
        <ele>890.17</ele>
        <time>2021-08-05T09:53:19Z</time>
      </trkpt>
      <trkpt lat="42.79885" lon="-1.33814">
        <ele>892.98</ele>
        <time>2021-08-05T09:53:27Z</time>
      </trkpt>
      <trkpt lat="42.7989" lon="-1.33862">
        <ele>895.53</ele>
        <time>2021-08-05T09:53:35Z</time>
      </trkpt>
      <trkpt lat="42.79871" lon="-1.33915">
        <ele>898.48</ele>
        <time>2021-08-05T09:53:44Z</time>
      </trkpt>
      <trkpt lat="42.79855" lon="-1.3394">
        <ele>899.38</ele>
        <time>2021-08-05T09:53:48Z</time>
      </trkpt>
      <trkpt lat="42.79846" lon="-1.33955">
        <ele>899.76</ele>
        <time>2021-08-05T09:53:50Z</time>
      </trkpt>
      <trkpt lat="42.79846" lon="-1.34016">
        <ele>901.81</ele>
        <time>2021-08-05T09:53:57Z</time>
      </trkpt>
      <trkpt lat="42.79858" lon="-1.34026">
        <ele>902.74</ele>
        <time>2021-08-05T09:53:59Z</time>
      </trkpt>
      <trkpt lat="42.79908" lon="-1.34059">
        <ele>906.17</ele>
        <time>2021-08-05T09:54:06Z</time>
      </trkpt>
      <trkpt lat="42.79952" lon="-1.34085">
        <ele>909.43</ele>
        <time>2021-08-05T09:54:12Z</time>
      </trkpt>
      <trkpt lat="42.79995" lon="-1.34111">
        <ele>912.71</ele>
        <time>2021-08-05T09:54:18Z</time>
      </trkpt>
      <trkpt lat="42.80022" lon="-1.34127">
        <ele>915.1</ele>
        <time>2021-08-05T09:54:22Z</time>
      </trkpt>
      <trkpt lat="42.80046" lon="-1.34151">
        <ele>916.94</ele>
        <time>2021-08-05T09:54:26Z</time>
      </trkpt>
      <trkpt lat="42.80057" lon="-1.34134">
        <ele>919.8</ele>
        <time>2021-08-05T09:54:32Z</time>
      </trkpt>
      <trkpt lat="42.80053" lon="-1.34127">
        <ele>920.18</ele>
        <time>2021-08-05T09:54:33Z</time>
      </trkpt>
      <trkpt lat="42.80012" lon="-1.34069">
        <ele>923.51</ele>
        <time>2021-08-05T09:54:41Z</time>
      </trkpt>
      <trkpt lat="42.79974" lon="-1.34021">
        <ele>926.92</ele>
        <time>2021-08-05T09:54:48Z</time>
      </trkpt>
      <trkpt lat="42.79954" lon="-1.3396">
        <ele>930.4</ele>
        <time>2021-08-05T09:54:55Z</time>
      </trkpt>
      <trkpt lat="42.79973" lon="-1.33912">
        <ele>933.06</ele>
        <time>2021-08-05T09:55:00Z</time>
      </trkpt>
      <trkpt lat="42.79989" lon="-1.33891">
        <ele>934.44</ele>
        <time>2021-08-05T09:55:03Z</time>
      </trkpt>
      <trkpt lat="42.80003" lon="-1.33839">
        <ele>937.64</ele>
        <time>2021-08-05T09:55:09Z</time>
      </trkpt>
      <trkpt lat="42.80002" lon="-1.33774">
        <ele>941.74</ele>
        <time>2021-08-05T09:55:16Z</time>
      </trkpt>
      <trkpt lat="42.80001" lon="-1.33733">
        <ele>945.04</ele>
        <time>2021-08-05T09:55:21Z</time>
      </trkpt>
      <trkpt lat="42.80002" lon="-1.33699">
        <ele>948.62</ele>
        <time>2021-08-05T09:55:25Z</time>
      </trkpt>
      <trkpt lat="42.80002" lon="-1.33674">
        <ele>950.66</ele>
        <time>2021-08-05T09:55:28Z</time>
      </trkpt>
      <trkpt lat="42.8001" lon="-1.33642">
        <ele>953.4</ele>
        <time>2021-08-05T09:55:32Z</time>
      </trkpt>
      <trkpt lat="42.80025" lon="-1.33609">
        <ele>955.75</ele>
        <time>2021-08-05T09:55:36Z</time>
      </trkpt>
      <trkpt lat="42.80049" lon="-1.33527">
        <ele>959.5</ele>
        <time>2021-08-05T09:55:44Z</time>
      </trkpt>
      <trkpt lat="42.80073" lon="-1.33449">
        <ele>962.61</ele>
        <time>2021-08-05T09:55:52Z</time>
      </trkpt>
      <trkpt lat="42.80099" lon="-1.33399">
        <ele>965.11</ele>
        <time>2021-08-05T09:55:58Z</time>
      </trkpt>
      <trkpt lat="42.80121" lon="-1.3328">
        <ele>968.4</ele>
        <time>2021-08-05T09:56:09Z</time>
      </trkpt>
      <trkpt lat="42.80131" lon="-1.33222">
        <ele>971.89</ele>
        <time>2021-08-05T09:56:15Z</time>
      </trkpt>
      <trkpt lat="42.80141" lon="-1.33185">
        <ele>975.29</ele>
        <time>2021-08-05T09:56:19Z</time>
      </trkpt>
      <trkpt lat="42.80147" lon="-1.33158">
        <ele>978.79</ele>
        <time>2021-08-05T09:56:23Z</time>
      </trkpt>
      <trkpt lat="42.80152" lon="-1.33133">
        <ele>982.27</ele>
        <time>2021-08-05T09:56:27Z</time>
      </trkpt>
      <trkpt lat="42.80155" lon="-1.33113">
        <ele>984.84</ele>
        <time>2021-08-05T09:56:30Z</time>
      </trkpt>
      <trkpt lat="42.80166" lon="-1.33072">
        <ele>988.69</ele>
        <time>2021-08-05T09:56:36Z</time>
      </trkpt>
      <trkpt lat="42.80168" lon="-1.33062">
        <ele>992.15</ele>
        <time>2021-08-05T09:56:42Z</time>
      </trkpt>
      <trkpt lat="42.80167" lon="-1.33066">
        <ele>993.18</ele>
        <time>2021-08-05T09:56:44Z</time>
      </trkpt>
      <trkpt lat="42.80153" lon="-1.33114">
        <ele>993.99</ele>
        <time>2021-08-05T09:56:54Z</time>
      </trkpt>
      <trkpt lat="42.80147" lon="-1.3315">
        <ele>991.17</ele>
        <time>2021-08-05T09:57:03Z</time>
      </trkpt>
      <trkpt lat="42.80142" lon="-1.33187">
        <ele>987.9</ele>
        <time>2021-08-05T09:57:13Z</time>
      </trkpt>
      <trkpt lat="42.80139" lon="-1.33199">
        <ele>984.87</ele>
        <time>2021-08-05T09:57:21Z</time>
      </trkpt>
      <trkpt lat="42.80134" lon="-1.33223">
        <ele>983.06</ele>
        <time>2021-08-05T09:57:28Z</time>
      </trkpt>
      <trkpt lat="42.80126" lon="-1.33255">
        <ele>980.04</ele>
        <time>2021-08-05T09:57:36Z</time>
      </trkpt>
      <trkpt lat="42.80119" lon="-1.33291">
        <ele>976.74</ele>
        <time>2021-08-05T09:57:45Z</time>
      </trkpt>
      <trkpt lat="42.80115" lon="-1.33319">
        <ele>973.63</ele>
        <time>2021-08-05T09:57:53Z</time>
      </trkpt>
      <trkpt lat="42.80107" lon="-1.33364">
        <ele>970.5</ele>
        <time>2021-08-05T09:58:03Z</time>
      </trkpt>
      <trkpt lat="42.80099" lon="-1.33397">
        <ele>968.29</ele>
        <time>2021-08-05T09:58:15Z</time>
      </trkpt>
      <trkpt lat="42.80099" lon="-1.33396">
        <ele>967.49</ele>
        <time>2021-08-05T09:58:43Z</time>
      </trkpt>
      <trkpt lat="42.80099" lon="-1.33426">
        <ele>967.44</ele>
        <time>2021-08-05T09:58:49Z</time>
      </trkpt>
      <trkpt lat="42.80092" lon="-1.33442">
        <ele>966.95</ele>
        <time>2021-08-05T09:58:54Z</time>
      </trkpt>
      <trkpt lat="42.80093" lon="-1.33449">
        <ele>966.94</ele>
        <time>2021-08-05T09:58:56Z</time>
      </trkpt>
      <trkpt lat="42.80096" lon="-1.33453">
        <ele>966.77</ele>
        <time>2021-08-05T09:59:04Z</time>
      </trkpt>
      <trkpt lat="42.80095" lon="-1.33453">
        <ele>966.84</ele>
        <time>2021-08-05T09:59:06Z</time>
      </trkpt>
      <trkpt lat="42.80099" lon="-1.33428">
        <ele>966.93</ele>
        <time>2021-08-05T09:59:15Z</time>
      </trkpt>
      <trkpt lat="42.801" lon="-1.3342">
        <ele>966.88</ele>
        <time>2021-08-05T09:59:17Z</time>
      </trkpt>
      <trkpt lat="42.80101" lon="-1.3339">
        <ele>966.8</ele>
        <time>2021-08-05T09:59:26Z</time>
      </trkpt>
      <trkpt lat="42.80102" lon="-1.33391">
        <ele>966.99</ele>
        <time>2021-08-05T09:59:35Z</time>
      </trkpt>
      <trkpt lat="42.80092" lon="-1.33413">
        <ele>967.13</ele>
        <time>2021-08-05T09:59:43Z</time>
      </trkpt>
      <trkpt lat="42.80094" lon="-1.33438">
        <ele>966.78</ele>
        <time>2021-08-05T09:59:54Z</time>
      </trkpt>
      <trkpt lat="42.801" lon="-1.33399">
        <ele>966.43</ele>
        <time>2021-08-05T10:00:02Z</time>
      </trkpt>
      <trkpt lat="42.801" lon="-1.33387">
        <ele>966.77</ele>
        <time>2021-08-05T10:00:13Z</time>
      </trkpt>
      <trkpt lat="42.80105" lon="-1.33369">
        <ele>967.23</ele>
        <time>2021-08-05T10:00:55Z</time>
      </trkpt>
      <trkpt lat="42.80105" lon="-1.3337">
        <ele>967.14</ele>
        <time>2021-08-05T10:00:59Z</time>
      </trkpt>
      <trkpt lat="42.801" lon="-1.33395">
        <ele>966.82</ele>
        <time>2021-08-05T10:01:14Z</time>
      </trkpt>
      <trkpt lat="42.801" lon="-1.33395">
        <ele>966.83</ele>
        <time>2021-08-05T10:01:15Z</time>
      </trkpt>
      <trkpt lat="42.80102" lon="-1.3339">
        <ele>966.83</ele>
        <time>2021-08-05T10:01:18Z</time>
      </trkpt>
      <trkpt lat="42.80093" lon="-1.33414">
        <ele>966.6</ele>
        <time>2021-08-05T10:01:27Z</time>
      </trkpt>
      <trkpt lat="42.80094" lon="-1.33423">
        <ele>966.82</ele>
        <time>2021-08-05T10:02:11Z</time>
      </trkpt>
      <trkpt lat="42.80094" lon="-1.33441">
        <ele>965.7</ele>
        <time>2021-08-05T10:02:26Z</time>
      </trkpt>
      <trkpt lat="42.80095" lon="-1.33438">
        <ele>965.62</ele>
        <time>2021-08-05T10:02:38Z</time>
      </trkpt>
      <trkpt lat="42.801" lon="-1.33423">
        <ele>965.62</ele>
        <time>2021-08-05T10:02:43Z</time>
      </trkpt>
      <trkpt lat="42.80102" lon="-1.33388">
        <ele>965.95</ele>
        <time>2021-08-05T10:02:52Z</time>
      </trkpt>
      <trkpt lat="42.80094" lon="-1.3342">
        <ele>966.29</ele>
        <time>2021-08-05T10:03:03Z</time>
      </trkpt>
      <trkpt lat="42.80095" lon="-1.33439">
        <ele>965.72</ele>
        <time>2021-08-05T10:03:21Z</time>
      </trkpt>
      <trkpt lat="42.80101" lon="-1.33397">
        <ele>965.61</ele>
        <time>2021-08-05T10:03:30Z</time>
      </trkpt>
      <trkpt lat="42.80101" lon="-1.33391">
        <ele>965.58</ele>
        <time>2021-08-05T10:03:32Z</time>
      </trkpt>
      <trkpt lat="42.80101" lon="-1.33389">
        <ele>966.06</ele>
        <time>2021-08-05T10:03:56Z</time>
      </trkpt>
      <trkpt lat="42.80101" lon="-1.3339">
        <ele>966.06</ele>
        <time>2021-08-05T10:03:59Z</time>
      </trkpt>
      <trkpt lat="42.80101" lon="-1.33396">
        <ele>966.27</ele>
        <time>2021-08-05T10:04:05Z</time>
      </trkpt>
      <trkpt lat="42.80103" lon="-1.33373">
        <ele>966.9</ele>
        <time>2021-08-05T10:04:16Z</time>
      </trkpt>
      <trkpt lat="42.80113" lon="-1.33328">
        <ele>967.73</ele>
        <time>2021-08-05T10:04:26Z</time>
      </trkpt>
      <trkpt lat="42.80125" lon="-1.33252">
        <ele>971.06</ele>
        <time>2021-08-05T10:04:40Z</time>
      </trkpt>
      <trkpt lat="42.80136" lon="-1.33206">
        <ele>974.25</ele>
        <time>2021-08-05T10:04:46Z</time>
      </trkpt>
      <trkpt lat="42.80147" lon="-1.33163">
        <ele>977.78</ele>
        <time>2021-08-05T10:04:51Z</time>
      </trkpt>
      <trkpt lat="42.80153" lon="-1.33125">
        <ele>981.21</ele>
        <time>2021-08-05T10:04:55Z</time>
      </trkpt>
      <trkpt lat="42.80163" lon="-1.33085">
        <ele>984.74</ele>
        <time>2021-08-05T10:04:59Z</time>
      </trkpt>
      <trkpt lat="42.80171" lon="-1.33042">
        <ele>988.32</ele>
        <time>2021-08-05T10:05:03Z</time>
      </trkpt>
      <trkpt lat="42.80175" lon="-1.33019">
        <ele>990.09</ele>
        <time>2021-08-05T10:05:05Z</time>
      </trkpt>
      <trkpt lat="42.80175" lon="-1.32949">
        <ele>994.27</ele>
        <time>2021-08-05T10:05:11Z</time>
      </trkpt>
      <trkpt lat="42.80187" lon="-1.32809">
        <ele>997.45</ele>
        <time>2021-08-05T10:05:23Z</time>
      </trkpt>
      <trkpt lat="42.80181" lon="-1.32686">
        <ele>998.64</ele>
        <time>2021-08-05T10:05:34Z</time>
      </trkpt>
      <trkpt lat="42.8018" lon="-1.32673">
        <ele>998.44</ele>
        <time>2021-08-05T10:05:35Z</time>
      </trkpt>
      <trkpt lat="42.80179" lon="-1.32605">
        <ele>996.87</ele>
        <time>2021-08-05T10:05:40Z</time>
      </trkpt>
      <trkpt lat="42.80148" lon="-1.32441">
        <ele>993.71</ele>
        <time>2021-08-05T10:05:52Z</time>
      </trkpt>
      <trkpt lat="42.80134" lon="-1.32354">
        <ele>991.75</ele>
        <time>2021-08-05T10:05:58Z</time>
      </trkpt>
      <trkpt lat="42.80107" lon="-1.32255">
        <ele>990.12</ele>
        <time>2021-08-05T10:06:05Z</time>
      </trkpt>
      <trkpt lat="42.80096" lon="-1.32152">
        <ele>986.47</ele>
        <time>2021-08-05T10:06:14Z</time>
      </trkpt>
      <trkpt lat="42.80084" lon="-1.32084">
        <ele>983.09</ele>
        <time>2021-08-05T10:06:20Z</time>
      </trkpt>
      <trkpt lat="42.80083" lon="-1.32073">
        <ele>982.39</ele>
        <time>2021-08-05T10:06:21Z</time>
      </trkpt>
      <trkpt lat="42.80085" lon="-1.31986">
        <ele>978.57</ele>
        <time>2021-08-05T10:06:30Z</time>
      </trkpt>
      <trkpt lat="42.80096" lon="-1.31914">
        <ele>979.06</ele>
        <time>2021-08-05T10:06:37Z</time>
      </trkpt>
      <trkpt lat="42.8011" lon="-1.31822">
        <ele>982.81</ele>
        <time>2021-08-05T10:06:45Z</time>
      </trkpt>
      <trkpt lat="42.80122" lon="-1.31746">
        <ele>985.94</ele>
        <time>2021-08-05T10:06:52Z</time>
      </trkpt>
      <trkpt lat="42.80125" lon="-1.31709">
        <ele>987.43</ele>
        <time>2021-08-05T10:06:55Z</time>
      </trkpt>
      <trkpt lat="42.80131" lon="-1.31639">
        <ele>990.46</ele>
        <time>2021-08-05T10:07:02Z</time>
      </trkpt>
      <trkpt lat="42.80138" lon="-1.31586">
        <ele>992.02</ele>
        <time>2021-08-05T10:07:08Z</time>
      </trkpt>
      <trkpt lat="42.80162" lon="-1.31473">
        <ele>995.49</ele>
        <time>2021-08-05T10:07:19Z</time>
      </trkpt>
      <trkpt lat="42.80205" lon="-1.31365">
        <ele>996.44</ele>
        <time>2021-08-05T10:07:30Z</time>
      </trkpt>
      <trkpt lat="42.80221" lon="-1.31335">
        <ele>996.14</ele>
        <time>2021-08-05T10:07:33Z</time>
      </trkpt>
      <trkpt lat="42.80312" lon="-1.31237">
        <ele>995.68</ele>
        <time>2021-08-05T10:07:45Z</time>
      </trkpt>
      <trkpt lat="42.80381" lon="-1.31178">
        <ele>996.23</ele>
        <time>2021-08-05T10:07:54Z</time>
      </trkpt>
      <trkpt lat="42.80436" lon="-1.31096">
        <ele>994.8</ele>
        <time>2021-08-05T10:08:02Z</time>
      </trkpt>
      <trkpt lat="42.80476" lon="-1.31052">
        <ele>993.9</ele>
        <time>2021-08-05T10:08:07Z</time>
      </trkpt>
      <trkpt lat="42.80575" lon="-1.31">
        <ele>992.48</ele>
        <time>2021-08-05T10:08:18Z</time>
      </trkpt>
      <trkpt lat="42.8066" lon="-1.30947">
        <ele>992.78</ele>
        <time>2021-08-05T10:08:27Z</time>
      </trkpt>
      <trkpt lat="42.807" lon="-1.309">
        <ele>991.17</ele>
        <time>2021-08-05T10:08:32Z</time>
      </trkpt>
      <trkpt lat="42.80712" lon="-1.30878">
        <ele>990.24</ele>
        <time>2021-08-05T10:08:34Z</time>
      </trkpt>
      <trkpt lat="42.80705" lon="-1.30804">
        <ele>987.74</ele>
        <time>2021-08-05T10:08:40Z</time>
      </trkpt>
      <trkpt lat="42.80678" lon="-1.30753">
        <ele>988.28</ele>
        <time>2021-08-05T10:08:45Z</time>
      </trkpt>
      <trkpt lat="42.80691" lon="-1.30698">
        <ele>992.08</ele>
        <time>2021-08-05T10:08:51Z</time>
      </trkpt>
      <trkpt lat="42.80709" lon="-1.30654">
        <ele>994.41</ele>
        <time>2021-08-05T10:08:55Z</time>
      </trkpt>
      <trkpt lat="42.80726" lon="-1.30571">
        <ele>997.51</ele>
        <time>2021-08-05T10:09:03Z</time>
      </trkpt>
      <trkpt lat="42.80726" lon="-1.30551">
        <ele>998.74</ele>
        <time>2021-08-05T10:09:05Z</time>
      </trkpt>
      <trkpt lat="42.80726" lon="-1.30531">
        <ele>1000.3</ele>
        <time>2021-08-05T10:09:07Z</time>
      </trkpt>
      <trkpt lat="42.80735" lon="-1.30495">
        <ele>1004.89</ele>
        <time>2021-08-05T10:09:12Z</time>
      </trkpt>
      <trkpt lat="42.8074" lon="-1.30491">
        <ele>1006.68</ele>
        <time>2021-08-05T10:09:14Z</time>
      </trkpt>
      <trkpt lat="42.80759" lon="-1.30481">
        <ele>1008.89</ele>
        <time>2021-08-05T10:09:18Z</time>
      </trkpt>
      <trkpt lat="42.80848" lon="-1.30427">
        <ele>1010.04</ele>
        <time>2021-08-05T10:09:27Z</time>
      </trkpt>
      <trkpt lat="42.80866" lon="-1.30412">
        <ele>1009.89</ele>
        <time>2021-08-05T10:09:29Z</time>
      </trkpt>
      <trkpt lat="42.80946" lon="-1.30372">
        <ele>1009.19</ele>
        <time>2021-08-05T10:09:39Z</time>
      </trkpt>
      <trkpt lat="42.80953" lon="-1.30368">
        <ele>1009.45</ele>
        <time>2021-08-05T10:09:40Z</time>
      </trkpt>
      <trkpt lat="42.81023" lon="-1.30292">
        <ele>1011.52</ele>
        <time>2021-08-05T10:09:50Z</time>
      </trkpt>
      <trkpt lat="42.81078" lon="-1.30165">
        <ele>1011.85</ele>
        <time>2021-08-05T10:09:58Z</time>
      </trkpt>
      <trkpt lat="42.8113" lon="-1.30058">
        <ele>1008.76</ele>
        <time>2021-08-05T10:10:05Z</time>
      </trkpt>
      <trkpt lat="42.81136" lon="-1.30045">
        <ele>1008.19</ele>
        <time>2021-08-05T10:10:06Z</time>
      </trkpt>
      <trkpt lat="42.8118" lon="-1.29984">
        <ele>1004.89</ele>
        <time>2021-08-05T10:10:12Z</time>
      </trkpt>
      <trkpt lat="42.81191" lon="-1.29951">
        <ele>1003.7</ele>
        <time>2021-08-05T10:10:16Z</time>
      </trkpt>
      <trkpt lat="42.81208" lon="-1.29833">
        <ele>1001.95</ele>
        <time>2021-08-05T10:10:25Z</time>
      </trkpt>
      <trkpt lat="42.81225" lon="-1.29678">
        <ele>1001.52</ele>
        <time>2021-08-05T10:10:34Z</time>
      </trkpt>
      <trkpt lat="42.81242" lon="-1.29566">
        <ele>1001.76</ele>
        <time>2021-08-05T10:10:41Z</time>
      </trkpt>
      <trkpt lat="42.81251" lon="-1.29535">
        <ele>1002.5</ele>
        <time>2021-08-05T10:10:44Z</time>
      </trkpt>
      <trkpt lat="42.81264" lon="-1.29506">
        <ele>1002.97</ele>
        <time>2021-08-05T10:10:47Z</time>
      </trkpt>
      <trkpt lat="42.81276" lon="-1.29471">
        <ele>1003.67</ele>
        <time>2021-08-05T10:10:50Z</time>
      </trkpt>
      <trkpt lat="42.81335" lon="-1.29404">
        <ele>1005.77</ele>
        <time>2021-08-05T10:10:58Z</time>
      </trkpt>
      <trkpt lat="42.81377" lon="-1.29411">
        <ele>1007.73</ele>
        <time>2021-08-05T10:11:02Z</time>
      </trkpt>
      <trkpt lat="42.8145" lon="-1.29409">
        <ele>1012.75</ele>
        <time>2021-08-05T10:11:08Z</time>
      </trkpt>
      <trkpt lat="42.81459" lon="-1.29405">
        <ele>1014</ele>
        <time>2021-08-05T10:11:09Z</time>
      </trkpt>
      <trkpt lat="42.81492" lon="-1.29373">
        <ele>1018.23</ele>
        <time>2021-08-05T10:11:13Z</time>
      </trkpt>
      <trkpt lat="42.81509" lon="-1.29324">
        <ele>1019.98</ele>
        <time>2021-08-05T10:11:16Z</time>
      </trkpt>
      <trkpt lat="42.81547" lon="-1.29127">
        <ele>1016.63</ele>
        <time>2021-08-05T10:11:26Z</time>
      </trkpt>
      <trkpt lat="42.8155" lon="-1.29056">
        <ele>1013.54</ele>
        <time>2021-08-05T10:11:29Z</time>
      </trkpt>
      <trkpt lat="42.81558" lon="-1.28981">
        <ele>1010.27</ele>
        <time>2021-08-05T10:11:32Z</time>
      </trkpt>
      <trkpt lat="42.81568" lon="-1.28909">
        <ele>1006.62</ele>
        <time>2021-08-05T10:11:35Z</time>
      </trkpt>
      <trkpt lat="42.81579" lon="-1.28843">
        <ele>1002.88</ele>
        <time>2021-08-05T10:11:38Z</time>
      </trkpt>
      <trkpt lat="42.81597" lon="-1.28787">
        <ele>999.27</ele>
        <time>2021-08-05T10:11:41Z</time>
      </trkpt>
      <trkpt lat="42.81608" lon="-1.28761">
        <ele>996.96</ele>
        <time>2021-08-05T10:11:43Z</time>
      </trkpt>
      <trkpt lat="42.8164" lon="-1.28752">
        <ele>992.05</ele>
        <time>2021-08-05T10:11:47Z</time>
      </trkpt>
      <trkpt lat="42.8166" lon="-1.28759">
        <ele>989.81</ele>
        <time>2021-08-05T10:11:49Z</time>
      </trkpt>
      <trkpt lat="42.81695" lon="-1.28756">
        <ele>987.66</ele>
        <time>2021-08-05T10:11:52Z</time>
      </trkpt>
      <trkpt lat="42.81707" lon="-1.2875">
        <ele>986.61</ele>
        <time>2021-08-05T10:11:53Z</time>
      </trkpt>
      <trkpt lat="42.81749" lon="-1.28723">
        <ele>985.27</ele>
        <time>2021-08-05T10:11:59Z</time>
      </trkpt>
      <trkpt lat="42.81758" lon="-1.28717">
        <ele>984.93</ele>
        <time>2021-08-05T10:12:02Z</time>
      </trkpt>
      <trkpt lat="42.8176" lon="-1.2866">
        <ele>984.91</ele>
        <time>2021-08-05T10:12:08Z</time>
      </trkpt>
      <trkpt lat="42.81715" lon="-1.28492">
        <ele>985.97</ele>
        <time>2021-08-05T10:12:17Z</time>
      </trkpt>
      <trkpt lat="42.81714" lon="-1.28401">
        <ele>984.1</ele>
        <time>2021-08-05T10:12:22Z</time>
      </trkpt>
      <trkpt lat="42.81743" lon="-1.28326">
        <ele>981.16</ele>
        <time>2021-08-05T10:12:26Z</time>
      </trkpt>
      <trkpt lat="42.81794" lon="-1.28256">
        <ele>978.29</ele>
        <time>2021-08-05T10:12:30Z</time>
      </trkpt>
      <trkpt lat="42.81849" lon="-1.28208">
        <ele>977.74</ele>
        <time>2021-08-05T10:12:35Z</time>
      </trkpt>
      <trkpt lat="42.81914" lon="-1.2815">
        <ele>980.9</ele>
        <time>2021-08-05T10:12:43Z</time>
      </trkpt>
      <trkpt lat="42.8194" lon="-1.28127">
        <ele>981.82</ele>
        <time>2021-08-05T10:12:48Z</time>
      </trkpt>
      <trkpt lat="42.81959" lon="-1.28085">
        <ele>981.66</ele>
        <time>2021-08-05T10:12:53Z</time>
      </trkpt>
      <trkpt lat="42.81982" lon="-1.28005">
        <ele>980.81</ele>
        <time>2021-08-05T10:12:58Z</time>
      </trkpt>
      <trkpt lat="42.81983" lon="-1.27939">
        <ele>980.04</ele>
        <time>2021-08-05T10:13:02Z</time>
      </trkpt>
      <trkpt lat="42.81976" lon="-1.27886">
        <ele>979.48</ele>
        <time>2021-08-05T10:13:05Z</time>
      </trkpt>
      <trkpt lat="42.81981" lon="-1.27826">
        <ele>978.64</ele>
        <time>2021-08-05T10:13:09Z</time>
      </trkpt>
      <trkpt lat="42.82002" lon="-1.27803">
        <ele>976.5</ele>
        <time>2021-08-05T10:13:13Z</time>
      </trkpt>
      <trkpt lat="42.82053" lon="-1.27824">
        <ele>972.98</ele>
        <time>2021-08-05T10:13:18Z</time>
      </trkpt>
      <trkpt lat="42.82095" lon="-1.27797">
        <ele>969.57</ele>
        <time>2021-08-05T10:13:24Z</time>
      </trkpt>
      <trkpt lat="42.821" lon="-1.27764">
        <ele>967.88</ele>
        <time>2021-08-05T10:13:27Z</time>
      </trkpt>
      <trkpt lat="42.8214" lon="-1.27736">
        <ele>964.47</ele>
        <time>2021-08-05T10:13:33Z</time>
      </trkpt>
      <trkpt lat="42.82188" lon="-1.27732">
        <ele>961.74</ele>
        <time>2021-08-05T10:13:38Z</time>
      </trkpt>
      <trkpt lat="42.82253" lon="-1.27685">
        <ele>958.2</ele>
        <time>2021-08-05T10:13:46Z</time>
      </trkpt>
      <trkpt lat="42.82297" lon="-1.27704">
        <ele>956.2</ele>
        <time>2021-08-05T10:13:51Z</time>
      </trkpt>
      <trkpt lat="42.82347" lon="-1.27761">
        <ele>954.08</ele>
        <time>2021-08-05T10:13:56Z</time>
      </trkpt>
      <trkpt lat="42.82401" lon="-1.27769">
        <ele>950.63</ele>
        <time>2021-08-05T10:14:01Z</time>
      </trkpt>
      <trkpt lat="42.82424" lon="-1.27766">
        <ele>949.36</ele>
        <time>2021-08-05T10:14:03Z</time>
      </trkpt>
      <trkpt lat="42.82471" lon="-1.27779">
        <ele>946.73</ele>
        <time>2021-08-05T10:14:07Z</time>
      </trkpt>
      <trkpt lat="42.82499" lon="-1.27812">
        <ele>943.72</ele>
        <time>2021-08-05T10:14:11Z</time>
      </trkpt>
      <trkpt lat="42.82529" lon="-1.27874">
        <ele>939.14</ele>
        <time>2021-08-05T10:14:17Z</time>
      </trkpt>
      <trkpt lat="42.82553" lon="-1.27907">
        <ele>936.96</ele>
        <time>2021-08-05T10:14:20Z</time>
      </trkpt>
      <trkpt lat="42.82618" lon="-1.27923">
        <ele>932.55</ele>
        <time>2021-08-05T10:14:26Z</time>
      </trkpt>
      <trkpt lat="42.82642" lon="-1.27898">
        <ele>929.9</ele>
        <time>2021-08-05T10:14:29Z</time>
      </trkpt>
      <trkpt lat="42.82677" lon="-1.27894">
        <ele>925.18</ele>
        <time>2021-08-05T10:14:35Z</time>
      </trkpt>
      <trkpt lat="42.82712" lon="-1.27907">
        <ele>922.12</ele>
        <time>2021-08-05T10:14:39Z</time>
      </trkpt>
      <trkpt lat="42.82797" lon="-1.27895">
        <ele>916.76</ele>
        <time>2021-08-05T10:14:46Z</time>
      </trkpt>
      <trkpt lat="42.8281" lon="-1.27894">
        <ele>914.69</ele>
        <time>2021-08-05T10:14:48Z</time>
      </trkpt>
      <trkpt lat="42.82825" lon="-1.27884">
        <ele>911.75</ele>
        <time>2021-08-05T10:14:51Z</time>
      </trkpt>
      <trkpt lat="42.82861" lon="-1.27904">
        <ele>907.94</ele>
        <time>2021-08-05T10:14:56Z</time>
      </trkpt>
      <trkpt lat="42.8286" lon="-1.27997">
        <ele>904.89</ele>
        <time>2021-08-05T10:15:01Z</time>
      </trkpt>
      <trkpt lat="42.82835" lon="-1.28053">
        <ele>901.87</ele>
        <time>2021-08-05T10:15:05Z</time>
      </trkpt>
      <trkpt lat="42.82844" lon="-1.28117">
        <ele>899.09</ele>
        <time>2021-08-05T10:15:10Z</time>
      </trkpt>
      <trkpt lat="42.8288" lon="-1.2817">
        <ele>896.47</ele>
        <time>2021-08-05T10:15:15Z</time>
      </trkpt>
      <trkpt lat="42.82928" lon="-1.28212">
        <ele>892.35</ele>
        <time>2021-08-05T10:15:20Z</time>
      </trkpt>
      <trkpt lat="42.82983" lon="-1.28257">
        <ele>889.02</ele>
        <time>2021-08-05T10:15:24Z</time>
      </trkpt>
      <trkpt lat="42.83023" lon="-1.28288">
        <ele>885.16</ele>
        <time>2021-08-05T10:15:28Z</time>
      </trkpt>
      <trkpt lat="42.83048" lon="-1.28328">
        <ele>880.78</ele>
        <time>2021-08-05T10:15:32Z</time>
      </trkpt>
      <trkpt lat="42.83072" lon="-1.28362">
        <ele>878.16</ele>
        <time>2021-08-05T10:15:35Z</time>
      </trkpt>
      <trkpt lat="42.83104" lon="-1.28371">
        <ele>873.64</ele>
        <time>2021-08-05T10:15:40Z</time>
      </trkpt>
      <trkpt lat="42.83114" lon="-1.28361">
        <ele>871.42</ele>
        <time>2021-08-05T10:15:43Z</time>
      </trkpt>
      <trkpt lat="42.83125" lon="-1.28347">
        <ele>870.39</ele>
        <time>2021-08-05T10:15:45Z</time>
      </trkpt>
      <trkpt lat="42.83169" lon="-1.28308">
        <ele>868.2</ele>
        <time>2021-08-05T10:15:50Z</time>
      </trkpt>
      <trkpt lat="42.83188" lon="-1.28325">
        <ele>865.39</ele>
        <time>2021-08-05T10:15:55Z</time>
      </trkpt>
      <trkpt lat="42.8319" lon="-1.28349">
        <ele>864.02</ele>
        <time>2021-08-05T10:15:57Z</time>
      </trkpt>
      <trkpt lat="42.83199" lon="-1.28396">
        <ele>862.54</ele>
        <time>2021-08-05T10:16:00Z</time>
      </trkpt>
      <trkpt lat="42.83228" lon="-1.2847">
        <ele>859.17</ele>
        <time>2021-08-05T10:16:05Z</time>
      </trkpt>
      <trkpt lat="42.83237" lon="-1.2851">
        <ele>856.75</ele>
        <time>2021-08-05T10:16:08Z</time>
      </trkpt>
      <trkpt lat="42.83206" lon="-1.2857">
        <ele>852.59</ele>
        <time>2021-08-05T10:16:14Z</time>
      </trkpt>
      <trkpt lat="42.83201" lon="-1.2858">
        <ele>852.03</ele>
        <time>2021-08-05T10:16:15Z</time>
      </trkpt>
      <trkpt lat="42.832" lon="-1.28659">
        <ele>847.91</ele>
        <time>2021-08-05T10:16:22Z</time>
      </trkpt>
      <trkpt lat="42.83214" lon="-1.28677">
        <ele>846.75</ele>
        <time>2021-08-05T10:16:24Z</time>
      </trkpt>
      <trkpt lat="42.83263" lon="-1.28747">
        <ele>843.09</ele>
        <time>2021-08-05T10:16:30Z</time>
      </trkpt>
      <trkpt lat="42.83272" lon="-1.28765">
        <ele>841.67</ele>
        <time>2021-08-05T10:16:32Z</time>
      </trkpt>
      <trkpt lat="42.83296" lon="-1.28837">
        <ele>837.73</ele>
        <time>2021-08-05T10:16:39Z</time>
      </trkpt>
      <trkpt lat="42.83309" lon="-1.28868">
        <ele>834.21</ele>
        <time>2021-08-05T10:16:45Z</time>
      </trkpt>
      <trkpt lat="42.83317" lon="-1.28885">
        <ele>832.69</ele>
        <time>2021-08-05T10:16:48Z</time>
      </trkpt>
      <trkpt lat="42.83334" lon="-1.28916">
        <ele>829.27</ele>
        <time>2021-08-05T10:16:53Z</time>
      </trkpt>
      <trkpt lat="42.83356" lon="-1.28954">
        <ele>826.16</ele>
        <time>2021-08-05T10:17:00Z</time>
      </trkpt>
      <trkpt lat="42.83392" lon="-1.28959">
        <ele>823.57</ele>
        <time>2021-08-05T10:17:08Z</time>
      </trkpt>
      <trkpt lat="42.83396" lon="-1.2895">
        <ele>823.44</ele>
        <time>2021-08-05T10:17:09Z</time>
      </trkpt>
      <trkpt lat="42.83422" lon="-1.28845">
        <ele>820.67</ele>
        <time>2021-08-05T10:17:18Z</time>
      </trkpt>
      <trkpt lat="42.83439" lon="-1.28816">
        <ele>819.25</ele>
        <time>2021-08-05T10:17:23Z</time>
      </trkpt>
      <trkpt lat="42.83454" lon="-1.2879">
        <ele>818.58</ele>
        <time>2021-08-05T10:17:28Z</time>
      </trkpt>
      <trkpt lat="42.8348" lon="-1.28779">
        <ele>818.75</ele>
        <time>2021-08-05T10:17:32Z</time>
      </trkpt>
      <trkpt lat="42.835" lon="-1.28751">
        <ele>820.23</ele>
        <time>2021-08-05T10:17:36Z</time>
      </trkpt>
      <trkpt lat="42.83513" lon="-1.28695">
        <ele>823.9</ele>
        <time>2021-08-05T10:17:42Z</time>
      </trkpt>
      <trkpt lat="42.83529" lon="-1.28666">
        <ele>826.12</ele>
        <time>2021-08-05T10:17:45Z</time>
      </trkpt>
      <trkpt lat="42.83557" lon="-1.28617">
        <ele>830.07</ele>
        <time>2021-08-05T10:17:51Z</time>
      </trkpt>
      <trkpt lat="42.8359" lon="-1.28587">
        <ele>832.59</ele>
        <time>2021-08-05T10:17:55Z</time>
      </trkpt>
      <trkpt lat="42.83604" lon="-1.28508">
        <ele>836.68</ele>
        <time>2021-08-05T10:18:01Z</time>
      </trkpt>
      <trkpt lat="42.8361" lon="-1.2847">
        <ele>838.28</ele>
        <time>2021-08-05T10:18:04Z</time>
      </trkpt>
      <trkpt lat="42.83627" lon="-1.28403">
        <ele>840.81</ele>
        <time>2021-08-05T10:18:10Z</time>
      </trkpt>
      <trkpt lat="42.83635" lon="-1.28372">
        <ele>841.9</ele>
        <time>2021-08-05T10:18:13Z</time>
      </trkpt>
      <trkpt lat="42.83689" lon="-1.2833">
        <ele>843.55</ele>
        <time>2021-08-05T10:18:20Z</time>
      </trkpt>
      <trkpt lat="42.83699" lon="-1.28324">
        <ele>843.85</ele>
        <time>2021-08-05T10:18:21Z</time>
      </trkpt>
      <trkpt lat="42.83721" lon="-1.28297">
        <ele>844.94</ele>
        <time>2021-08-05T10:18:24Z</time>
      </trkpt>
      <trkpt lat="42.83751" lon="-1.28278">
        <ele>847.08</ele>
        <time>2021-08-05T10:18:28Z</time>
      </trkpt>
      <trkpt lat="42.83762" lon="-1.28273">
        <ele>848.47</ele>
        <time>2021-08-05T10:18:30Z</time>
      </trkpt>
      <trkpt lat="42.83767" lon="-1.28278">
        <ele>850.53</ele>
        <time>2021-08-05T10:18:40Z</time>
      </trkpt>
      <trkpt lat="42.83769" lon="-1.2828">
        <ele>850.92</ele>
        <time>2021-08-05T10:18:44Z</time>
      </trkpt>
      <trkpt lat="42.83772" lon="-1.28283">
        <ele>851.26</ele>
        <time>2021-08-05T10:18:50Z</time>
      </trkpt>
      <trkpt lat="42.83773" lon="-1.28283">
        <ele>851.61</ele>
        <time>2021-08-05T10:18:56Z</time>
      </trkpt>
      <trkpt lat="42.83782" lon="-1.28285">
        <ele>852.2</ele>
        <time>2021-08-05T10:19:10Z</time>
      </trkpt>
      <trkpt lat="42.83802" lon="-1.28289">
        <ele>854.91</ele>
        <time>2021-08-05T10:19:31Z</time>
      </trkpt>
      <trkpt lat="42.83802" lon="-1.28289">
        <ele>855.18</ele>
        <time>2021-08-05T10:19:33Z</time>
      </trkpt>
      <trkpt lat="42.83802" lon="-1.28296">
        <ele>855.73</ele>
        <time>2021-08-05T10:19:46Z</time>
      </trkpt>
      <trkpt lat="42.83802" lon="-1.28292">
        <ele>855.77</ele>
        <time>2021-08-05T10:20:00Z</time>
      </trkpt>
      <trkpt lat="42.838" lon="-1.28287">
        <ele>856.47</ele>
        <time>2021-08-05T10:20:17Z</time>
      </trkpt>
      <trkpt lat="42.8379" lon="-1.28286">
        <ele>855.94</ele>
        <time>2021-08-05T10:20:34Z</time>
      </trkpt>
      <trkpt lat="42.83773" lon="-1.28282">
        <ele>852.89</ele>
        <time>2021-08-05T10:20:52Z</time>
      </trkpt>
      <trkpt lat="42.83762" lon="-1.28279">
        <ele>851.65</ele>
        <time>2021-08-05T10:21:04Z</time>
      </trkpt>
      <trkpt lat="42.83733" lon="-1.28291">
        <ele>851.03</ele>
        <time>2021-08-05T10:21:10Z</time>
      </trkpt>
      <trkpt lat="42.83724" lon="-1.28296">
        <ele>850.39</ele>
        <time>2021-08-05T10:21:18Z</time>
      </trkpt>
      <trkpt lat="42.83722" lon="-1.28296">
        <ele>851.04</ele>
        <time>2021-08-05T10:21:36Z</time>
      </trkpt>
      <trkpt lat="42.83722" lon="-1.28296">
        <ele>849.99</ele>
        <time>2021-08-05T10:22:08Z</time>
      </trkpt>
      <trkpt lat="42.83726" lon="-1.28295">
        <ele>849.83</ele>
        <time>2021-08-05T10:22:19Z</time>
      </trkpt>
      <trkpt lat="42.83752" lon="-1.28281">
        <ele>849.81</ele>
        <time>2021-08-05T10:22:31Z</time>
      </trkpt>
      <trkpt lat="42.83763" lon="-1.28276">
        <ele>850.3</ele>
        <time>2021-08-05T10:22:43Z</time>
      </trkpt>
      <trkpt lat="42.83763" lon="-1.28276">
        <ele>851.06</ele>
        <time>2021-08-05T10:23:15Z</time>
      </trkpt>
      <trkpt lat="42.83771" lon="-1.28208">
        <ele>850.07</ele>
        <time>2021-08-05T10:32:11Z</time>
      </trkpt>
      <trkpt lat="42.83761" lon="-1.28271">
        <ele>848.25</ele>
        <time>2021-08-05T10:32:25Z</time>
      </trkpt>
      <trkpt lat="42.83773" lon="-1.28262">
        <ele>847.5</ele>
        <time>2021-08-05T10:32:40Z</time>
      </trkpt>
      <trkpt lat="42.83777" lon="-1.28259">
        <ele>846.99</ele>
        <time>2021-08-05T10:33:14Z</time>
      </trkpt>
      <trkpt lat="42.8379" lon="-1.28245">
        <ele>846.78</ele>
        <time>2021-08-05T10:33:27Z</time>
      </trkpt>
      <trkpt lat="42.83825" lon="-1.28237">
        <ele>846.06</ele>
        <time>2021-08-05T10:33:33Z</time>
      </trkpt>
      <trkpt lat="42.83844" lon="-1.28227">
        <ele>845.6</ele>
        <time>2021-08-05T10:33:36Z</time>
      </trkpt>
      <trkpt lat="42.83872" lon="-1.28165">
        <ele>844.36</ele>
        <time>2021-08-05T10:33:42Z</time>
      </trkpt>
      <trkpt lat="42.83887" lon="-1.2811">
        <ele>843.23</ele>
        <time>2021-08-05T10:33:46Z</time>
      </trkpt>
      <trkpt lat="42.83922" lon="-1.28054">
        <ele>841.46</ele>
        <time>2021-08-05T10:33:51Z</time>
      </trkpt>
      <trkpt lat="42.83943" lon="-1.28002">
        <ele>838.71</ele>
        <time>2021-08-05T10:33:56Z</time>
      </trkpt>
      <trkpt lat="42.83955" lon="-1.2795">
        <ele>833.96</ele>
        <time>2021-08-05T10:34:03Z</time>
      </trkpt>
      <trkpt lat="42.83965" lon="-1.27858">
        <ele>829.79</ele>
        <time>2021-08-05T10:34:11Z</time>
      </trkpt>
      <trkpt lat="42.83957" lon="-1.2779">
        <ele>825.95</ele>
        <time>2021-08-05T10:34:18Z</time>
      </trkpt>
      <trkpt lat="42.83956" lon="-1.2778">
        <ele>825.64</ele>
        <time>2021-08-05T10:34:19Z</time>
      </trkpt>
      <trkpt lat="42.83959" lon="-1.27751">
        <ele>823.73</ele>
        <time>2021-08-05T10:34:24Z</time>
      </trkpt>
      <trkpt lat="42.83999" lon="-1.27661">
        <ele>822.61</ele>
        <time>2021-08-05T10:34:32Z</time>
      </trkpt>
      <trkpt lat="42.84019" lon="-1.27579">
        <ele>824.2</ele>
        <time>2021-08-05T10:34:37Z</time>
      </trkpt>
      <trkpt lat="42.84038" lon="-1.27545">
        <ele>825.4</ele>
        <time>2021-08-05T10:34:40Z</time>
      </trkpt>
      <trkpt lat="42.84033" lon="-1.27498">
        <ele>825.98</ele>
        <time>2021-08-05T10:34:44Z</time>
      </trkpt>
      <trkpt lat="42.84027" lon="-1.2744">
        <ele>825.1</ele>
        <time>2021-08-05T10:34:51Z</time>
      </trkpt>
      <trkpt lat="42.84004" lon="-1.27363">
        <ele>824.58</ele>
        <time>2021-08-05T10:34:59Z</time>
      </trkpt>
      <trkpt lat="42.83972" lon="-1.27265">
        <ele>827.79</ele>
        <time>2021-08-05T10:35:06Z</time>
      </trkpt>
      <trkpt lat="42.83953" lon="-1.27201">
        <ele>830.98</ele>
        <time>2021-08-05T10:35:10Z</time>
      </trkpt>
      <trkpt lat="42.83945" lon="-1.27171">
        <ele>832.9</ele>
        <time>2021-08-05T10:35:12Z</time>
      </trkpt>
      <trkpt lat="42.83934" lon="-1.27068">
        <ele>837.19</ele>
        <time>2021-08-05T10:35:18Z</time>
      </trkpt>
      <trkpt lat="42.83921" lon="-1.27008">
        <ele>840.29</ele>
        <time>2021-08-05T10:35:23Z</time>
      </trkpt>
      <trkpt lat="42.83912" lon="-1.26968">
        <ele>840.97</ele>
        <time>2021-08-05T10:35:27Z</time>
      </trkpt>
      <trkpt lat="42.83885" lon="-1.26944">
        <ele>841.65</ele>
        <time>2021-08-05T10:35:32Z</time>
      </trkpt>
      <trkpt lat="42.8386" lon="-1.26933">
        <ele>842.14</ele>
        <time>2021-08-05T10:35:35Z</time>
      </trkpt>
      <trkpt lat="42.8381" lon="-1.26872">
        <ele>844.8</ele>
        <time>2021-08-05T10:35:42Z</time>
      </trkpt>
      <trkpt lat="42.8382" lon="-1.26836">
        <ele>847.74</ele>
        <time>2021-08-05T10:35:48Z</time>
      </trkpt>
      <trkpt lat="42.83828" lon="-1.26842">
        <ele>848.01</ele>
        <time>2021-08-05T10:35:49Z</time>
      </trkpt>
      <trkpt lat="42.83845" lon="-1.26855">
        <ele>848.48</ele>
        <time>2021-08-05T10:35:51Z</time>
      </trkpt>
      <trkpt lat="42.83887" lon="-1.2684">
        <ele>850.02</ele>
        <time>2021-08-05T10:35:56Z</time>
      </trkpt>
      <trkpt lat="42.83893" lon="-1.26781">
        <ele>852.24</ele>
        <time>2021-08-05T10:36:00Z</time>
      </trkpt>
      <trkpt lat="42.83884" lon="-1.26702">
        <ele>856.58</ele>
        <time>2021-08-05T10:36:05Z</time>
      </trkpt>
      <trkpt lat="42.83881" lon="-1.26645">
        <ele>859.92</ele>
        <time>2021-08-05T10:36:08Z</time>
      </trkpt>
      <trkpt lat="42.83882" lon="-1.26584">
        <ele>863.3</ele>
        <time>2021-08-05T10:36:11Z</time>
      </trkpt>
      <trkpt lat="42.83887" lon="-1.26535">
        <ele>866.97</ele>
        <time>2021-08-05T10:36:14Z</time>
      </trkpt>
      <trkpt lat="42.83888" lon="-1.26507">
        <ele>869.56</ele>
        <time>2021-08-05T10:36:16Z</time>
      </trkpt>
      <trkpt lat="42.83872" lon="-1.26446">
        <ele>874.19</ele>
        <time>2021-08-05T10:36:20Z</time>
      </trkpt>
      <trkpt lat="42.83851" lon="-1.26398">
        <ele>877.78</ele>
        <time>2021-08-05T10:36:23Z</time>
      </trkpt>
      <trkpt lat="42.83826" lon="-1.26352">
        <ele>883.44</ele>
        <time>2021-08-05T10:36:26Z</time>
      </trkpt>
      <trkpt lat="42.83798" lon="-1.26313">
        <ele>887.77</ele>
        <time>2021-08-05T10:36:29Z</time>
      </trkpt>
      <trkpt lat="42.83793" lon="-1.26301">
        <ele>889.31</ele>
        <time>2021-08-05T10:36:30Z</time>
      </trkpt>
      <trkpt lat="42.83777" lon="-1.2624">
        <ele>894.34</ele>
        <time>2021-08-05T10:36:34Z</time>
      </trkpt>
      <trkpt lat="42.83767" lon="-1.26191">
        <ele>897.63</ele>
        <time>2021-08-05T10:36:37Z</time>
      </trkpt>
      <trkpt lat="42.83759" lon="-1.26141">
        <ele>901.17</ele>
        <time>2021-08-05T10:36:41Z</time>
      </trkpt>
      <trkpt lat="42.83764" lon="-1.26091">
        <ele>904.35</ele>
        <time>2021-08-05T10:36:48Z</time>
      </trkpt>
      <trkpt lat="42.83773" lon="-1.2607">
        <ele>904.75</ele>
        <time>2021-08-05T10:36:53Z</time>
      </trkpt>
      <trkpt lat="42.83788" lon="-1.25981">
        <ele>905.23</ele>
        <time>2021-08-05T10:37:03Z</time>
      </trkpt>
      <trkpt lat="42.83789" lon="-1.2597">
        <ele>905.47</ele>
        <time>2021-08-05T10:37:04Z</time>
      </trkpt>
      <trkpt lat="42.8379" lon="-1.25888">
        <ele>907.33</ele>
        <time>2021-08-05T10:37:11Z</time>
      </trkpt>
      <trkpt lat="42.83802" lon="-1.25839">
        <ele>907.99</ele>
        <time>2021-08-05T10:37:15Z</time>
      </trkpt>
      <trkpt lat="42.83827" lon="-1.25726">
        <ele>909.34</ele>
        <time>2021-08-05T10:37:23Z</time>
      </trkpt>
      <trkpt lat="42.83868" lon="-1.25666">
        <ele>911.82</ele>
        <time>2021-08-05T10:37:30Z</time>
      </trkpt>
      <trkpt lat="42.83899" lon="-1.25681">
        <ele>913.22</ele>
        <time>2021-08-05T10:37:34Z</time>
      </trkpt>
      <trkpt lat="42.83961" lon="-1.25762">
        <ele>917.15</ele>
        <time>2021-08-05T10:37:42Z</time>
      </trkpt>
      <trkpt lat="42.83998" lon="-1.25814">
        <ele>920.05</ele>
        <time>2021-08-05T10:37:47Z</time>
      </trkpt>
      <trkpt lat="42.84049" lon="-1.25838">
        <ele>923.76</ele>
        <time>2021-08-05T10:37:53Z</time>
      </trkpt>
      <trkpt lat="42.84091" lon="-1.25795">
        <ele>927.2</ele>
        <time>2021-08-05T10:37:59Z</time>
      </trkpt>
      <trkpt lat="42.841" lon="-1.25758">
        <ele>928.71</ele>
        <time>2021-08-05T10:38:02Z</time>
      </trkpt>
      <trkpt lat="42.84104" lon="-1.25734">
        <ele>930.14</ele>
        <time>2021-08-05T10:38:04Z</time>
      </trkpt>
      <trkpt lat="42.84119" lon="-1.25708">
        <ele>932.7</ele>
        <time>2021-08-05T10:38:08Z</time>
      </trkpt>
      <trkpt lat="42.84153" lon="-1.25668">
        <ele>932.91</ele>
        <time>2021-08-05T10:38:14Z</time>
      </trkpt>
      <trkpt lat="42.8416" lon="-1.25651">
        <ele>932.7</ele>
        <time>2021-08-05T10:38:16Z</time>
      </trkpt>
      <trkpt lat="42.84168" lon="-1.25623">
        <ele>932.31</ele>
        <time>2021-08-05T10:38:19Z</time>
      </trkpt>
      <trkpt lat="42.84185" lon="-1.25586">
        <ele>931.99</ele>
        <time>2021-08-05T10:38:23Z</time>
      </trkpt>
      <trkpt lat="42.84227" lon="-1.25515">
        <ele>930.48</ele>
        <time>2021-08-05T10:38:32Z</time>
      </trkpt>
      <trkpt lat="42.84266" lon="-1.25448">
        <ele>928.73</ele>
        <time>2021-08-05T10:38:40Z</time>
      </trkpt>
      <trkpt lat="42.84272" lon="-1.25437">
        <ele>928.45</ele>
        <time>2021-08-05T10:38:41Z</time>
      </trkpt>
      <trkpt lat="42.84358" lon="-1.25354">
        <ele>928.16</ele>
        <time>2021-08-05T10:38:52Z</time>
      </trkpt>
      <trkpt lat="42.84365" lon="-1.25347">
        <ele>928.6</ele>
        <time>2021-08-05T10:38:53Z</time>
      </trkpt>
      <trkpt lat="42.84394" lon="-1.25299">
        <ele>932.13</ele>
        <time>2021-08-05T10:38:58Z</time>
      </trkpt>
      <trkpt lat="42.8443" lon="-1.25252">
        <ele>936.72</ele>
        <time>2021-08-05T10:39:03Z</time>
      </trkpt>
      <trkpt lat="42.84453" lon="-1.25223">
        <ele>938.86</ele>
        <time>2021-08-05T10:39:06Z</time>
      </trkpt>
      <trkpt lat="42.84497" lon="-1.25192">
        <ele>940.66</ele>
        <time>2021-08-05T10:39:11Z</time>
      </trkpt>
      <trkpt lat="42.84518" lon="-1.2518">
        <ele>940.78</ele>
        <time>2021-08-05T10:39:14Z</time>
      </trkpt>
      <trkpt lat="42.84566" lon="-1.25144">
        <ele>939.63</ele>
        <time>2021-08-05T10:39:21Z</time>
      </trkpt>
      <trkpt lat="42.84603" lon="-1.25135">
        <ele>939.46</ele>
        <time>2021-08-05T10:39:26Z</time>
      </trkpt>
      <trkpt lat="42.84649" lon="-1.25139">
        <ele>938.33</ele>
        <time>2021-08-05T10:39:34Z</time>
      </trkpt>
      <trkpt lat="42.8465" lon="-1.25139">
        <ele>935.42</ele>
        <time>2021-08-05T10:39:49Z</time>
      </trkpt>
      <trkpt lat="42.84648" lon="-1.2514">
        <ele>935.5</ele>
        <time>2021-08-05T10:40:10Z</time>
      </trkpt>
      <trkpt lat="42.8465" lon="-1.2514">
        <ele>936.08</ele>
        <time>2021-08-05T10:40:34Z</time>
      </trkpt>
      <trkpt lat="42.84656" lon="-1.25141">
        <ele>935.28</ele>
        <time>2021-08-05T10:40:45Z</time>
      </trkpt>
      <trkpt lat="42.84656" lon="-1.2514">
        <ele>935.35</ele>
        <time>2021-08-05T10:40:47Z</time>
      </trkpt>
      <trkpt lat="42.84664" lon="-1.2512">
        <ele>935.64</ele>
        <time>2021-08-05T10:40:52Z</time>
      </trkpt>
      <trkpt lat="42.84702" lon="-1.25079">
        <ele>933.74</ele>
        <time>2021-08-05T10:40:59Z</time>
      </trkpt>
      <trkpt lat="42.84734" lon="-1.25058">
        <ele>930.38</ele>
        <time>2021-08-05T10:41:03Z</time>
      </trkpt>
      <trkpt lat="42.84759" lon="-1.25023">
        <ele>925.55</ele>
        <time>2021-08-05T10:41:07Z</time>
      </trkpt>
      <trkpt lat="42.84766" lon="-1.25001">
        <ele>923.27</ele>
        <time>2021-08-05T10:41:09Z</time>
      </trkpt>
      <trkpt lat="42.84788" lon="-1.2495">
        <ele>918.16</ele>
        <time>2021-08-05T10:41:14Z</time>
      </trkpt>
      <trkpt lat="42.848" lon="-1.24935">
        <ele>916.32</ele>
        <time>2021-08-05T10:41:16Z</time>
      </trkpt>
      <trkpt lat="42.84843" lon="-1.24912">
        <ele>911.74</ele>
        <time>2021-08-05T10:41:21Z</time>
      </trkpt>
      <trkpt lat="42.84855" lon="-1.24903">
        <ele>909.54</ele>
        <time>2021-08-05T10:41:23Z</time>
      </trkpt>
      <trkpt lat="42.84867" lon="-1.24889">
        <ele>904.49</ele>
        <time>2021-08-05T10:41:26Z</time>
      </trkpt>
      <trkpt lat="42.84875" lon="-1.24868">
        <ele>900.93</ele>
        <time>2021-08-05T10:41:29Z</time>
      </trkpt>
      <trkpt lat="42.84883" lon="-1.24832">
        <ele>896.08</ele>
        <time>2021-08-05T10:41:33Z</time>
      </trkpt>
      <trkpt lat="42.84888" lon="-1.24806">
        <ele>892.21</ele>
        <time>2021-08-05T10:41:36Z</time>
      </trkpt>
      <trkpt lat="42.84892" lon="-1.24773">
        <ele>889</ele>
        <time>2021-08-05T10:41:39Z</time>
      </trkpt>
      <trkpt lat="42.849" lon="-1.24737">
        <ele>885.92</ele>
        <time>2021-08-05T10:41:42Z</time>
      </trkpt>
      <trkpt lat="42.84904" lon="-1.24669">
        <ele>881.92</ele>
        <time>2021-08-05T10:41:48Z</time>
      </trkpt>
      <trkpt lat="42.84917" lon="-1.24557">
        <ele>879.28</ele>
        <time>2021-08-05T10:41:55Z</time>
      </trkpt>
      <trkpt lat="42.8492" lon="-1.24488">
        <ele>876.81</ele>
        <time>2021-08-05T10:41:59Z</time>
      </trkpt>
      <trkpt lat="42.84925" lon="-1.24445">
        <ele>874.61</ele>
        <time>2021-08-05T10:42:02Z</time>
      </trkpt>
      <trkpt lat="42.84916" lon="-1.24386">
        <ele>871.31</ele>
        <time>2021-08-05T10:42:07Z</time>
      </trkpt>
      <trkpt lat="42.84896" lon="-1.24341">
        <ele>868.37</ele>
        <time>2021-08-05T10:42:11Z</time>
      </trkpt>
      <trkpt lat="42.84846" lon="-1.24283">
        <ele>863.91</ele>
        <time>2021-08-05T10:42:17Z</time>
      </trkpt>
      <trkpt lat="42.8481" lon="-1.24243">
        <ele>860.81</ele>
        <time>2021-08-05T10:42:21Z</time>
      </trkpt>
      <trkpt lat="42.84771" lon="-1.24205">
        <ele>856.82</ele>
        <time>2021-08-05T10:42:25Z</time>
      </trkpt>
      <trkpt lat="42.84742" lon="-1.24182">
        <ele>853.61</ele>
        <time>2021-08-05T10:42:28Z</time>
      </trkpt>
      <trkpt lat="42.84725" lon="-1.24167">
        <ele>851.72</ele>
        <time>2021-08-05T10:42:30Z</time>
      </trkpt>
      <trkpt lat="42.84683" lon="-1.24142">
        <ele>846.82</ele>
        <time>2021-08-05T10:42:34Z</time>
      </trkpt>
      <trkpt lat="42.84672" lon="-1.24135">
        <ele>845.74</ele>
        <time>2021-08-05T10:42:35Z</time>
      </trkpt>
      <trkpt lat="42.84639" lon="-1.24095">
        <ele>842.09</ele>
        <time>2021-08-05T10:42:39Z</time>
      </trkpt>
      <trkpt lat="42.84601" lon="-1.24039">
        <ele>839.13</ele>
        <time>2021-08-05T10:42:44Z</time>
      </trkpt>
      <trkpt lat="42.84508" lon="-1.23943">
        <ele>837.59</ele>
        <time>2021-08-05T10:42:55Z</time>
      </trkpt>
      <trkpt lat="42.84473" lon="-1.23905">
        <ele>836.1</ele>
        <time>2021-08-05T10:43:01Z</time>
      </trkpt>
      <trkpt lat="42.8443" lon="-1.23894">
        <ele>835.35</ele>
        <time>2021-08-05T10:43:08Z</time>
      </trkpt>
      <trkpt lat="42.84375" lon="-1.2388">
        <ele>831.52</ele>
        <time>2021-08-05T10:43:17Z</time>
      </trkpt>
      <trkpt lat="42.84355" lon="-1.23878">
        <ele>828.36</ele>
        <time>2021-08-05T10:43:23Z</time>
      </trkpt>
      <trkpt lat="42.84345" lon="-1.2388">
        <ele>826.37</ele>
        <time>2021-08-05T10:43:29Z</time>
      </trkpt>
      <trkpt lat="42.84299" lon="-1.23863">
        <ele>825.43</ele>
        <time>2021-08-05T10:43:41Z</time>
      </trkpt>
      <trkpt lat="42.84284" lon="-1.23856">
        <ele>824.93</ele>
        <time>2021-08-05T10:43:52Z</time>
      </trkpt>
      <trkpt lat="42.84256" lon="-1.2384">
        <ele>824.46</ele>
        <time>2021-08-05T10:44:10Z</time>
      </trkpt>
      <trkpt lat="42.84224" lon="-1.23814">
        <ele>823.33</ele>
        <time>2021-08-05T10:44:23Z</time>
      </trkpt>
      <trkpt lat="42.84222" lon="-1.23813">
        <ele>822.44</ele>
        <time>2021-08-05T10:44:37Z</time>
      </trkpt>
      <trkpt lat="42.84202" lon="-1.23805">
        <ele>821.28</ele>
        <time>2021-08-05T10:45:21Z</time>
      </trkpt>
      <trkpt lat="42.84183" lon="-1.23801">
        <ele>818.98</ele>
        <time>2021-08-05T10:45:30Z</time>
      </trkpt>
      <trkpt lat="42.84151" lon="-1.2379">
        <ele>815.69</ele>
        <time>2021-08-05T10:45:41Z</time>
      </trkpt>
      <trkpt lat="42.84124" lon="-1.23777">
        <ele>812.37</ele>
        <time>2021-08-05T10:45:50Z</time>
      </trkpt>
      <trkpt lat="42.84091" lon="-1.23767">
        <ele>809.25</ele>
        <time>2021-08-05T10:46:00Z</time>
      </trkpt>
      <trkpt lat="42.84069" lon="-1.23763">
        <ele>805.96</ele>
        <time>2021-08-05T10:46:08Z</time>
      </trkpt>
      <trkpt lat="42.84045" lon="-1.23759">
        <ele>802.65</ele>
        <time>2021-08-05T10:46:15Z</time>
      </trkpt>
      <trkpt lat="42.84038" lon="-1.23757">
        <ele>801.67</ele>
        <time>2021-08-05T10:46:17Z</time>
      </trkpt>
      <trkpt lat="42.84037" lon="-1.23725">
        <ele>797.7</ele>
        <time>2021-08-05T10:46:23Z</time>
      </trkpt>
      <trkpt lat="42.84042" lon="-1.23714">
        <ele>796.17</ele>
        <time>2021-08-05T10:46:25Z</time>
      </trkpt>
      <trkpt lat="42.8406" lon="-1.23682">
        <ele>792.1</ele>
        <time>2021-08-05T10:46:31Z</time>
      </trkpt>
      <trkpt lat="42.84065" lon="-1.23674">
        <ele>791.48</ele>
        <time>2021-08-05T10:46:32Z</time>
      </trkpt>
      <trkpt lat="42.8409" lon="-1.23648">
        <ele>789.28</ele>
        <time>2021-08-05T10:46:37Z</time>
      </trkpt>
      <trkpt lat="42.84096" lon="-1.23644">
        <ele>788.35</ele>
        <time>2021-08-05T10:46:39Z</time>
      </trkpt>
      <trkpt lat="42.84128" lon="-1.23614">
        <ele>787.01</ele>
        <time>2021-08-05T10:46:45Z</time>
      </trkpt>
      <trkpt lat="42.84149" lon="-1.23593">
        <ele>787.46</ele>
        <time>2021-08-05T10:46:53Z</time>
      </trkpt>
      <trkpt lat="42.84146" lon="-1.23587">
        <ele>787.36</ele>
        <time>2021-08-05T10:46:55Z</time>
      </trkpt>
      <trkpt lat="42.84131" lon="-1.23582">
        <ele>786.63</ele>
        <time>2021-08-05T10:46:59Z</time>
      </trkpt>
      <trkpt lat="42.84111" lon="-1.2359">
        <ele>785.65</ele>
        <time>2021-08-05T10:47:03Z</time>
      </trkpt>
      <trkpt lat="42.84085" lon="-1.23608">
        <ele>783.27</ele>
        <time>2021-08-05T10:47:08Z</time>
      </trkpt>
      <trkpt lat="42.84058" lon="-1.23616">
        <ele>779.28</ele>
        <time>2021-08-05T10:47:14Z</time>
      </trkpt>
      <trkpt lat="42.84051" lon="-1.23616">
        <ele>778.63</ele>
        <time>2021-08-05T10:47:15Z</time>
      </trkpt>
      <trkpt lat="42.84024" lon="-1.23614">
        <ele>776.29</ele>
        <time>2021-08-05T10:47:19Z</time>
      </trkpt>
      <trkpt lat="42.84005" lon="-1.2362">
        <ele>773.27</ele>
        <time>2021-08-05T10:47:24Z</time>
      </trkpt>
      <trkpt lat="42.83966" lon="-1.23647">
        <ele>769.52</ele>
        <time>2021-08-05T10:47:32Z</time>
      </trkpt>
      <trkpt lat="42.83954" lon="-1.23655">
        <ele>766.14</ele>
        <time>2021-08-05T10:47:37Z</time>
      </trkpt>
      <trkpt lat="42.83942" lon="-1.23664">
        <ele>764.27</ele>
        <time>2021-08-05T10:47:40Z</time>
      </trkpt>
      <trkpt lat="42.83915" lon="-1.23675">
        <ele>760.75</ele>
        <time>2021-08-05T10:47:46Z</time>
      </trkpt>
      <trkpt lat="42.83883" lon="-1.23682">
        <ele>756.96</ele>
        <time>2021-08-05T10:47:53Z</time>
      </trkpt>
      <trkpt lat="42.83872" lon="-1.23684">
        <ele>755.7</ele>
        <time>2021-08-05T10:47:55Z</time>
      </trkpt>
      <trkpt lat="42.83847" lon="-1.23695">
        <ele>751.76</ele>
        <time>2021-08-05T10:48:00Z</time>
      </trkpt>
      <trkpt lat="42.83837" lon="-1.237">
        <ele>748.66</ele>
        <time>2021-08-05T10:48:03Z</time>
      </trkpt>
      <trkpt lat="42.8382" lon="-1.23714">
        <ele>745.17</ele>
        <time>2021-08-05T10:48:08Z</time>
      </trkpt>
      <trkpt lat="42.838" lon="-1.23726">
        <ele>741.42</ele>
        <time>2021-08-05T10:48:14Z</time>
      </trkpt>
      <trkpt lat="42.83788" lon="-1.2373">
        <ele>738.21</ele>
        <time>2021-08-05T10:48:19Z</time>
      </trkpt>
      <trkpt lat="42.83785" lon="-1.23733">
        <ele>723.1</ele>
      </trkpt>
      <trkpt lat="42.83775" lon="-1.23729">
        <ele>721.1</ele>
      </trkpt>
      <trkpt lat="42.83768" lon="-1.2372">
        <ele>719.6</ele>
      </trkpt>
      <trkpt lat="42.83761" lon="-1.23701">
        <ele>717.8</ele>
      </trkpt>
      <trkpt lat="42.83751" lon="-1.23686">
        <ele>715.6</ele>
      </trkpt>
      <trkpt lat="42.83736" lon="-1.23661">
        <ele>712.1</ele>
      </trkpt>
      <trkpt lat="42.83766" lon="-1.23595">
        <ele>707.6</ele>
      </trkpt>
      <trkpt lat="42.83761" lon="-1.23592">
        <ele>706.8</ele>
      </trkpt>
    </trkseg>
  </trk>
</gpx>